<?xml version='1.0' encoding='UTF-8'?>
<gpx version="1.1" creator="https://www.komoot.de" xmlns="http://www.topografix.com/GPX/1/1" xmlns:xsi="http://www.w3.org/2001/XMLSchema-instance" xsi:schemaLocation="http://www.topografix.com/GPX/1/1 http://www.topografix.com/GPX/1/1/gpx.xsd">
  <metadata>
    <name>GPX Download: Königsalm Nieste – Park am Steinertsee Runde von Kassel Hauptbahnhof</name>
    <author>
      <link href="https://www.komoot.de">
        <text>komoot</text>
        <type>text/html</type>
      </link>
    </author>
  </metadata>
  <wpt lat="51.317125" lon="9.516087">
    <name>Blick auf das Wehr und die Martinskirche in Kassel</name>
    <sym>Flag, Blue</sym>
  </wpt>
  <wpt lat="51.316026" lon="9.557449">
    <name>Naturbad im Geo-Naturpark Frau-Holle-Land</name>
    <sym>Flag, Blue</sym>
  </wpt>
  <wpt lat="51.313468" lon="9.561977">
    <name>Renaturierter Nieste-Bach östlich der Autobahn</name>
    <sym>Flag, Blue</sym>
  </wpt>
  <wpt lat="51.305258" lon="9.654633">
    <name>Königsalm Nieste</name>
    <sym>Restaurant</sym>
  </wpt>
  <wpt lat="51.289609" lon="9.619147">
    <name>Park am Steinertsee</name>
    <sym>Flag, Blue</sym>
  </wpt>
  <wpt lat="51.287216" lon="9.606376">
    <name>Historischer Dorfkern von Kaufungen</name>
    <sym>Flag, Blue</sym>
  </wpt>
  <wpt lat="51.286375" lon="9.600163">
    <name>Gänserammel-Skulpturen und Märchenpfad in Niederkaufungen</name>
    <sym>Flag, Blue</sym>
  </wpt>
  <wpt lat="51.295634" lon="9.556717">
    <name>Losse</name>
    <sym>Flag, Blue</sym>
  </wpt>
  <trk>
    <name>GPX Download: Königsalm Nieste – Park am Steinertsee Runde von Kassel Hauptbahnhof</name>
    <trkseg>
      <trkpt lat="51.314704" lon="9.504208">
        <ele>144.542558</ele>
        <time>2026-03-20T10:37:52.437Z</time>
      </trkpt>
      <trkpt lat="51.314973" lon="9.503910">
        <ele>144.542558</ele>
        <time>2026-03-20T10:37:59.963Z</time>
      </trkpt>
      <trkpt lat="51.315134" lon="9.504270">
        <ele>144.542558</ele>
        <time>2026-03-20T10:38:06.283Z</time>
      </trkpt>
      <trkpt lat="51.315286" lon="9.504610">
        <ele>144.542558</ele>
        <time>2026-03-20T10:38:12.487Z</time>
      </trkpt>
      <trkpt lat="51.315599" lon="9.505273">
        <ele>144.158952</ele>
        <time>2026-03-20T10:38:24.489Z</time>
      </trkpt>
      <trkpt lat="51.315612" lon="9.505358">
        <ele>144.115705</ele>
        <time>2026-03-20T10:38:25.520Z</time>
      </trkpt>
      <trkpt lat="51.315650" lon="9.505359">
        <ele>144.085654</ele>
        <time>2026-03-20T10:38:26.263Z</time>
      </trkpt>
      <trkpt lat="51.315669" lon="9.505360">
        <ele>144.070623</ele>
        <time>2026-03-20T10:38:26.652Z</time>
      </trkpt>
      <trkpt lat="51.315681" lon="9.505360">
        <ele>144.061134</ele>
        <time>2026-03-20T10:38:26.883Z</time>
      </trkpt>
      <trkpt lat="51.315697" lon="9.505407">
        <ele>144.034685</ele>
        <time>2026-03-20T10:38:27.487Z</time>
      </trkpt>
      <trkpt lat="51.315712" lon="9.505432">
        <ele>144.017558</ele>
        <time>2026-03-20T10:38:27.869Z</time>
      </trkpt>
      <trkpt lat="51.315763" lon="9.505502">
        <ele>143.964427</ele>
        <time>2026-03-20T10:38:29.129Z</time>
      </trkpt>
      <trkpt lat="51.315832" lon="9.505597">
        <ele>143.892448</ele>
        <time>2026-03-20T10:38:30.812Z</time>
      </trkpt>
      <trkpt lat="51.315876" lon="9.505657">
        <ele>143.846735</ele>
        <time>2026-03-20T10:38:31.895Z</time>
      </trkpt>
      <trkpt lat="51.315888" lon="9.505672">
        <ele>143.834694</ele>
        <time>2026-03-20T10:38:32.207Z</time>
      </trkpt>
      <trkpt lat="51.316001" lon="9.505830">
        <ele>143.716033</ele>
        <time>2026-03-20T10:38:36.102Z</time>
      </trkpt>
      <trkpt lat="51.316984" lon="9.506942">
        <ele>142.571520</ele>
        <time>2026-03-20T10:39:07.443Z</time>
      </trkpt>
      <trkpt lat="51.317052" lon="9.506941">
        <ele>142.488680</ele>
        <time>2026-03-20T10:39:09.101Z</time>
      </trkpt>
      <trkpt lat="51.317367" lon="9.507284">
        <ele>142.024519</ele>
        <time>2026-03-20T10:39:18.693Z</time>
      </trkpt>
      <trkpt lat="51.317399" lon="9.507321">
        <ele>141.976424</ele>
        <time>2026-03-20T10:39:19.672Z</time>
      </trkpt>
      <trkpt lat="51.317722" lon="9.507678">
        <ele>141.498199</ele>
        <time>2026-03-20T10:39:29.624Z</time>
      </trkpt>
      <trkpt lat="51.318127" lon="9.508161">
        <ele>140.889680</ele>
        <time>2026-03-20T10:39:42.623Z</time>
      </trkpt>
      <trkpt lat="51.318346" lon="9.508395">
        <ele>140.615967</ele>
        <time>2026-03-20T10:39:49.467Z</time>
      </trkpt>
      <trkpt lat="51.318655" lon="9.508724">
        <ele>140.230188</ele>
        <time>2026-03-20T10:39:59.316Z</time>
      </trkpt>
      <trkpt lat="51.318692" lon="9.508764">
        <ele>140.183775</ele>
        <time>2026-03-20T10:40:00.490Z</time>
      </trkpt>
      <trkpt lat="51.318735" lon="9.508857">
        <ele>140.108627</ele>
        <time>2026-03-20T10:40:02.427Z</time>
      </trkpt>
      <trkpt lat="51.318753" lon="9.508951">
        <ele>140.044763</ele>
        <time>2026-03-20T10:40:03.620Z</time>
      </trkpt>
      <trkpt lat="51.318607" lon="9.509491">
        <ele>139.662562</ele>
        <time>2026-03-20T10:40:10.643Z</time>
      </trkpt>
      <trkpt lat="51.318462" lon="9.510254">
        <ele>139.144509</ele>
        <time>2026-03-20T10:40:19.991Z</time>
      </trkpt>
      <trkpt lat="51.318427" lon="9.510680">
        <ele>138.948788</ele>
        <time>2026-03-20T10:40:25.132Z</time>
      </trkpt>
      <trkpt lat="51.318414" lon="9.511426">
        <ele>138.671921</ele>
        <time>2026-03-20T10:40:34.289Z</time>
      </trkpt>
      <trkpt lat="51.318420" lon="9.511572">
        <ele>138.617639</ele>
        <time>2026-03-20T10:40:36.113Z</time>
      </trkpt>
      <trkpt lat="51.318618" lon="9.513823">
        <ele>137.824015</ele>
        <time>2026-03-20T10:41:06.322Z</time>
      </trkpt>
      <trkpt lat="51.318635" lon="9.514579">
        <ele>137.607398</ele>
        <time>2026-03-20T10:41:16.180Z</time>
      </trkpt>
      <trkpt lat="51.318616" lon="9.514931">
        <ele>137.506229</ele>
        <time>2026-03-20T10:41:20.536Z</time>
      </trkpt>
      <trkpt lat="51.318591" lon="9.515091">
        <ele>137.459004</ele>
        <time>2026-03-20T10:41:22.505Z</time>
      </trkpt>
      <trkpt lat="51.318530" lon="9.515269">
        <ele>137.400875</ele>
        <time>2026-03-20T10:41:24.967Z</time>
      </trkpt>
      <trkpt lat="51.318435" lon="9.515427">
        <ele>137.338095</ele>
        <time>2026-03-20T10:41:27.690Z</time>
      </trkpt>
      <trkpt lat="51.318198" lon="9.515657">
        <ele>137.211099</ele>
        <time>2026-03-20T10:41:33.348Z</time>
      </trkpt>
      <trkpt lat="51.318093" lon="9.515728">
        <ele>137.176545</ele>
        <time>2026-03-20T10:41:35.731Z</time>
      </trkpt>
      <trkpt lat="51.317742" lon="9.515850">
        <ele>137.327228</ele>
        <time>2026-03-20T10:41:43.394Z</time>
      </trkpt>
      <trkpt lat="51.317719" lon="9.515857">
        <ele>137.337049</ele>
        <time>2026-03-20T10:41:43.875Z</time>
      </trkpt>
      <trkpt lat="51.317124" lon="9.516083">
        <ele>137.593595</ele>
        <time>2026-03-20T10:41:58.784Z</time>
      </trkpt>
      <trkpt lat="51.316742" lon="9.516228">
        <ele>137.758295</ele>
        <time>2026-03-20T10:42:08.872Z</time>
      </trkpt>
      <trkpt lat="51.316229" lon="9.516461">
        <ele>137.929725</ele>
        <time>2026-03-20T10:42:23.081Z</time>
      </trkpt>
      <trkpt lat="51.316234" lon="9.516497">
        <ele>137.930878</ele>
        <time>2026-03-20T10:42:23.644Z</time>
      </trkpt>
      <trkpt lat="51.316246" lon="9.516581">
        <ele>137.933572</ele>
        <time>2026-03-20T10:42:24.974Z</time>
      </trkpt>
      <trkpt lat="51.316268" lon="9.516729">
        <ele>137.938329</ele>
        <time>2026-03-20T10:42:27.302Z</time>
      </trkpt>
      <trkpt lat="51.316279" lon="9.516807">
        <ele>137.940830</ele>
        <time>2026-03-20T10:42:28.491Z</time>
      </trkpt>
      <trkpt lat="51.316286" lon="9.516867">
        <ele>137.942738</ele>
        <time>2026-03-20T10:42:29.388Z</time>
      </trkpt>
      <trkpt lat="51.316282" lon="9.517056">
        <ele>137.948651</ele>
        <time>2026-03-20T10:42:32.226Z</time>
      </trkpt>
      <trkpt lat="51.316376" lon="9.517647">
        <ele>137.967720</ele>
        <time>2026-03-20T10:42:40.870Z</time>
      </trkpt>
      <trkpt lat="51.316430" lon="9.517758">
        <ele>137.972119</ele>
        <time>2026-03-20T10:42:42.787Z</time>
      </trkpt>
      <trkpt lat="51.316932" lon="9.518823">
        <ele>138.010829</ele>
        <time>2026-03-20T10:43:00.792Z</time>
      </trkpt>
      <trkpt lat="51.317317" lon="9.519796">
        <ele>137.956730</ele>
        <time>2026-03-20T10:43:17.364Z</time>
      </trkpt>
      <trkpt lat="51.317494" lon="9.520179">
        <ele>137.934354</ele>
        <time>2026-03-20T10:43:24.478Z</time>
      </trkpt>
      <trkpt lat="51.317602" lon="9.520475">
        <ele>137.918252</ele>
        <time>2026-03-20T10:43:29.425Z</time>
      </trkpt>
      <trkpt lat="51.317618" lon="9.520578">
        <ele>137.913267</ele>
        <time>2026-03-20T10:43:30.946Z</time>
      </trkpt>
      <trkpt lat="51.317606" lon="9.520658">
        <ele>137.909402</ele>
        <time>2026-03-20T10:43:32.112Z</time>
      </trkpt>
      <trkpt lat="51.317448" lon="9.520956">
        <ele>137.891044</ele>
        <time>2026-03-20T10:43:37.643Z</time>
      </trkpt>
      <trkpt lat="51.316741" lon="9.522495">
        <ele>137.689450</ele>
        <time>2026-03-20T10:44:02.808Z</time>
      </trkpt>
      <trkpt lat="51.316706" lon="9.522771">
        <ele>137.656778</ele>
        <time>2026-03-20T10:44:06.423Z</time>
      </trkpt>
      <trkpt lat="51.316741" lon="9.522901">
        <ele>137.640356</ele>
        <time>2026-03-20T10:44:08.269Z</time>
      </trkpt>
      <trkpt lat="51.318219" lon="9.524545">
        <ele>137.268488</ele>
        <time>2026-03-20T10:44:48.610Z</time>
      </trkpt>
      <trkpt lat="51.318666" lon="9.525100">
        <ele>137.119180</ele>
        <time>2026-03-20T10:45:00.059Z</time>
      </trkpt>
      <trkpt lat="51.318662" lon="9.525175">
        <ele>137.080748</ele>
        <time>2026-03-20T10:45:00.976Z</time>
      </trkpt>
      <trkpt lat="51.318599" lon="9.525276">
        <ele>137.007891</ele>
        <time>2026-03-20T10:45:02.710Z</time>
      </trkpt>
      <trkpt lat="51.318372" lon="9.525476">
        <ele>136.796190</ele>
        <time>2026-03-20T10:45:07.715Z</time>
      </trkpt>
      <trkpt lat="51.318310" lon="9.525572">
        <ele>136.725707</ele>
        <time>2026-03-20T10:45:09.369Z</time>
      </trkpt>
      <trkpt lat="51.318281" lon="9.525681">
        <ele>136.665221</ele>
        <time>2026-03-20T10:45:10.799Z</time>
      </trkpt>
      <trkpt lat="51.318434" lon="9.526596">
        <ele>136.181610</ele>
        <time>2026-03-20T10:45:22.216Z</time>
      </trkpt>
      <trkpt lat="51.318686" lon="9.527129">
        <ele>135.840377</ele>
        <time>2026-03-20T10:45:30.358Z</time>
      </trkpt>
      <trkpt lat="51.318796" lon="9.527291">
        <ele>135.718242</ele>
        <time>2026-03-20T10:45:33.360Z</time>
      </trkpt>
      <trkpt lat="51.319055" lon="9.527566">
        <ele>135.622598</ele>
        <time>2026-03-20T10:45:39.787Z</time>
      </trkpt>
      <trkpt lat="51.319127" lon="9.527643">
        <ele>135.602081</ele>
        <time>2026-03-20T10:45:41.608Z</time>
      </trkpt>
      <trkpt lat="51.319350" lon="9.529139">
        <ele>135.374365</ele>
        <time>2026-03-20T10:46:02.261Z</time>
      </trkpt>
      <trkpt lat="51.319408" lon="9.529599">
        <ele>135.304884</ele>
        <time>2026-03-20T10:46:08.715Z</time>
      </trkpt>
      <trkpt lat="51.319557" lon="9.530240">
        <ele>135.272682</ele>
        <time>2026-03-20T10:46:18.453Z</time>
      </trkpt>
      <trkpt lat="51.319582" lon="9.530573">
        <ele>135.282650</ele>
        <time>2026-03-20T10:46:23.260Z</time>
      </trkpt>
      <trkpt lat="51.319564" lon="9.530907">
        <ele>135.292614</ele>
        <time>2026-03-20T10:46:28.000Z</time>
      </trkpt>
      <trkpt lat="51.319392" lon="9.531882">
        <ele>135.322726</ele>
        <time>2026-03-20T10:46:42.351Z</time>
      </trkpt>
      <trkpt lat="51.319353" lon="9.531961">
        <ele>135.325718</ele>
        <time>2026-03-20T10:46:43.758Z</time>
      </trkpt>
      <trkpt lat="51.319280" lon="9.532056">
        <ele>135.330193</ele>
        <time>2026-03-20T10:46:45.893Z</time>
      </trkpt>
      <trkpt lat="51.319192" lon="9.532109">
        <ele>135.334665</ele>
        <time>2026-03-20T10:46:48.642Z</time>
      </trkpt>
      <trkpt lat="51.319022" lon="9.532346">
        <ele>135.345388</ele>
        <time>2026-03-20T10:46:53.833Z</time>
      </trkpt>
      <trkpt lat="51.318911" lon="9.532409">
        <ele>135.327351</ele>
        <time>2026-03-20T10:46:56.518Z</time>
      </trkpt>
      <trkpt lat="51.319977" lon="9.537118">
        <ele>134.681720</ele>
        <time>2026-03-20T10:48:06.197Z</time>
      </trkpt>
      <trkpt lat="51.320146" lon="9.537836">
        <ele>134.615929</ele>
        <time>2026-03-20T10:48:17.116Z</time>
      </trkpt>
      <trkpt lat="51.320719" lon="9.539939">
        <ele>134.738258</ele>
        <time>2026-03-20T10:48:50.039Z</time>
      </trkpt>
      <trkpt lat="51.320789" lon="9.540403">
        <ele>134.790380</ele>
        <time>2026-03-20T10:48:57.723Z</time>
      </trkpt>
      <trkpt lat="51.320916" lon="9.541175">
        <ele>135.197563</ele>
        <time>2026-03-20T10:49:10.718Z</time>
      </trkpt>
      <trkpt lat="51.320925" lon="9.541270">
        <ele>135.246573</ele>
        <time>2026-03-20T10:49:12.295Z</time>
      </trkpt>
      <trkpt lat="51.320891" lon="9.542119">
        <ele>135.680505</ele>
        <time>2026-03-20T10:49:26.414Z</time>
      </trkpt>
      <trkpt lat="51.320215" lon="9.542504">
        <ele>136.279276</ele>
        <time>2026-03-20T10:49:45.624Z</time>
      </trkpt>
      <trkpt lat="51.319486" lon="9.542860">
        <ele>137.119005</ele>
        <time>2026-03-20T10:50:04.544Z</time>
      </trkpt>
      <trkpt lat="51.319072" lon="9.542941">
        <ele>137.578515</ele>
        <time>2026-03-20T10:50:15.212Z</time>
      </trkpt>
      <trkpt lat="51.318506" lon="9.542848">
        <ele>138.205370</ele>
        <time>2026-03-20T10:50:31.198Z</time>
      </trkpt>
      <trkpt lat="51.318103" lon="9.542879">
        <ele>139.227635</ele>
        <time>2026-03-20T10:50:43.332Z</time>
      </trkpt>
      <trkpt lat="51.318136" lon="9.543928">
        <ele>140.901167</ele>
        <time>2026-03-20T10:51:04.934Z</time>
      </trkpt>
      <trkpt lat="51.317905" lon="9.544441">
        <ele>141.908604</ele>
        <time>2026-03-20T10:51:18.580Z</time>
      </trkpt>
      <trkpt lat="51.317854" lon="9.544690">
        <ele>142.326109</ele>
        <time>2026-03-20T10:51:24.332Z</time>
      </trkpt>
      <trkpt lat="51.317902" lon="9.544929">
        <ele>142.726099</ele>
        <time>2026-03-20T10:51:29.752Z</time>
      </trkpt>
      <trkpt lat="51.317761" lon="9.545219">
        <ele>143.300367</ele>
        <time>2026-03-20T10:51:37.520Z</time>
      </trkpt>
      <trkpt lat="51.316944" lon="9.547327">
        <ele>147.167105</ele>
        <time>2026-03-20T10:52:27.222Z</time>
      </trkpt>
      <trkpt lat="51.316660" lon="9.548028">
        <ele>148.141908</ele>
        <time>2026-03-20T10:52:43.128Z</time>
      </trkpt>
      <trkpt lat="51.316360" lon="9.548787">
        <ele>149.155813</ele>
        <time>2026-03-20T10:52:59.825Z</time>
      </trkpt>
      <trkpt lat="51.316203" lon="9.549182">
        <ele>149.684318</ele>
        <time>2026-03-20T10:53:08.302Z</time>
      </trkpt>
      <trkpt lat="51.315598" lon="9.550654">
        <ele>151.504948</ele>
        <time>2026-03-20T10:53:38.725Z</time>
      </trkpt>
      <trkpt lat="51.314808" lon="9.551698">
        <ele>153.082977</ele>
        <time>2026-03-20T10:54:09.868Z</time>
      </trkpt>
      <trkpt lat="51.314653" lon="9.551903">
        <ele>153.236643</ele>
        <time>2026-03-20T10:54:15.428Z</time>
      </trkpt>
      <trkpt lat="51.314460" lon="9.552157">
        <ele>152.967189</ele>
        <time>2026-03-20T10:54:21.746Z</time>
      </trkpt>
      <trkpt lat="51.314191" lon="9.552512">
        <ele>152.591208</ele>
        <time>2026-03-20T10:54:29.628Z</time>
      </trkpt>
      <trkpt lat="51.314731" lon="9.552605">
        <ele>152.005611</ele>
        <time>2026-03-20T10:54:39.529Z</time>
      </trkpt>
      <trkpt lat="51.315359" lon="9.552746">
        <ele>151.268906</ele>
        <time>2026-03-20T10:54:50.042Z</time>
      </trkpt>
      <trkpt lat="51.315776" lon="9.552828">
        <ele>150.212111</ele>
        <time>2026-03-20T10:54:57.051Z</time>
      </trkpt>
      <trkpt lat="51.315836" lon="9.552881">
        <ele>150.039716</ele>
        <time>2026-03-20T10:54:58.181Z</time>
      </trkpt>
      <trkpt lat="51.315705" lon="9.553033">
        <ele>149.632673</ele>
        <time>2026-03-20T10:55:00.861Z</time>
      </trkpt>
      <trkpt lat="51.315378" lon="9.553529">
        <ele>148.499261</ele>
        <time>2026-03-20T10:55:08.400Z</time>
      </trkpt>
      <trkpt lat="51.315551" lon="9.553365">
        <ele>147.993454</ele>
        <time>2026-03-20T10:55:11.833Z</time>
      </trkpt>
      <trkpt lat="51.315745" lon="9.553124">
        <ele>147.375650</ele>
        <time>2026-03-20T10:55:16.213Z</time>
      </trkpt>
      <trkpt lat="51.315773" lon="9.553178">
        <ele>147.265342</ele>
        <time>2026-03-20T10:55:17.006Z</time>
      </trkpt>
      <trkpt lat="51.316023" lon="9.552851">
        <ele>146.570056</ele>
        <time>2026-03-20T10:55:22.824Z</time>
      </trkpt>
      <trkpt lat="51.316592" lon="9.552382">
        <ele>145.450073</ele>
        <time>2026-03-20T10:55:33.775Z</time>
      </trkpt>
      <trkpt lat="51.316858" lon="9.552092">
        <ele>144.886846</ele>
        <time>2026-03-20T10:55:39.584Z</time>
      </trkpt>
      <trkpt lat="51.317589" lon="9.551024">
        <ele>143.412445</ele>
        <time>2026-03-20T10:55:57.895Z</time>
      </trkpt>
      <trkpt lat="51.317678" lon="9.551138">
        <ele>143.308985</ele>
        <time>2026-03-20T10:56:00.865Z</time>
      </trkpt>
      <trkpt lat="51.317788" lon="9.551277">
        <ele>143.181783</ele>
        <time>2026-03-20T10:56:04.612Z</time>
      </trkpt>
      <trkpt lat="51.318437" lon="9.552144">
        <ele>142.414523</ele>
        <time>2026-03-20T10:56:27.012Z</time>
      </trkpt>
      <trkpt lat="51.319196" lon="9.551297">
        <ele>142.342022</ele>
        <time>2026-03-20T10:56:52.282Z</time>
      </trkpt>
      <trkpt lat="51.319232" lon="9.551003">
        <ele>142.441959</ele>
        <time>2026-03-20T10:56:59.519Z</time>
      </trkpt>
      <trkpt lat="51.319226" lon="9.550746">
        <ele>142.527748</ele>
        <time>2026-03-20T10:57:06.095Z</time>
      </trkpt>
      <trkpt lat="51.319253" lon="9.550730">
        <ele>142.543116</ele>
        <time>2026-03-20T10:57:07.306Z</time>
      </trkpt>
      <trkpt lat="51.319318" lon="9.550693">
        <ele>142.579939</ele>
        <time>2026-03-20T10:57:10.260Z</time>
      </trkpt>
      <trkpt lat="51.319341" lon="9.550707">
        <ele>142.593073</ele>
        <time>2026-03-20T10:57:10.936Z</time>
      </trkpt>
      <trkpt lat="51.319363" lon="9.550733">
        <ele>142.607671</ele>
        <time>2026-03-20T10:57:11.613Z</time>
      </trkpt>
      <trkpt lat="51.319426" lon="9.550807">
        <ele>142.649385</ele>
        <time>2026-03-20T10:57:13.700Z</time>
      </trkpt>
      <trkpt lat="51.319593" lon="9.551033">
        <ele>142.766126</ele>
        <time>2026-03-20T10:57:20.995Z</time>
      </trkpt>
      <trkpt lat="51.319609" lon="9.551129">
        <ele>142.799268</ele>
        <time>2026-03-20T10:57:22.627Z</time>
      </trkpt>
      <trkpt lat="51.319797" lon="9.551498">
        <ele>142.958075</ele>
        <time>2026-03-20T10:57:30.646Z</time>
      </trkpt>
      <trkpt lat="51.320063" lon="9.551942">
        <ele>143.379551</ele>
        <time>2026-03-20T10:57:41.355Z</time>
      </trkpt>
      <trkpt lat="51.319896" lon="9.552104">
        <ele>143.638909</ele>
        <time>2026-03-20T10:57:46.924Z</time>
      </trkpt>
      <trkpt lat="51.319151" lon="9.553595">
        <ele>145.223323</ele>
        <time>2026-03-20T10:58:20.426Z</time>
      </trkpt>
      <trkpt lat="51.319005" lon="9.553824">
        <ele>145.521739</ele>
        <time>2026-03-20T10:58:26.327Z</time>
      </trkpt>
      <trkpt lat="51.318539" lon="9.554145">
        <ele>146.400827</ele>
        <time>2026-03-20T10:58:41.604Z</time>
      </trkpt>
      <trkpt lat="51.318303" lon="9.554379">
        <ele>146.881896</ele>
        <time>2026-03-20T10:58:50.380Z</time>
      </trkpt>
      <trkpt lat="51.316964" lon="9.555638">
        <ele>149.057220</ele>
        <time>2026-03-20T10:59:37.219Z</time>
      </trkpt>
      <trkpt lat="51.316789" lon="9.555955">
        <ele>149.290256</ele>
        <time>2026-03-20T10:59:44.044Z</time>
      </trkpt>
      <trkpt lat="51.316491" lon="9.556484">
        <ele>149.682643</ele>
        <time>2026-03-20T10:59:55.158Z</time>
      </trkpt>
      <trkpt lat="51.316425" lon="9.556586">
        <ele>149.763536</ele>
        <time>2026-03-20T10:59:57.400Z</time>
      </trkpt>
      <trkpt lat="51.316078" lon="9.557239">
        <ele>150.351208</ele>
        <time>2026-03-20T11:00:09.950Z</time>
      </trkpt>
      <trkpt lat="51.315997" lon="9.557415">
        <ele>150.580974</ele>
        <time>2026-03-20T11:00:13.113Z</time>
      </trkpt>
      <trkpt lat="51.315656" lon="9.558153">
        <ele>151.545781</ele>
        <time>2026-03-20T11:00:29.121Z</time>
      </trkpt>
      <trkpt lat="51.315324" lon="9.559057">
        <ele>152.648034</ele>
        <time>2026-03-20T11:00:49.863Z</time>
      </trkpt>
      <trkpt lat="51.315112" lon="9.559565">
        <ele>153.289400</ele>
        <time>2026-03-20T11:01:03.446Z</time>
      </trkpt>
      <trkpt lat="51.314991" lon="9.560111">
        <ele>153.895387</ele>
        <time>2026-03-20T11:01:16.974Z</time>
      </trkpt>
      <trkpt lat="51.314888" lon="9.560356">
        <ele>154.204252</ele>
        <time>2026-03-20T11:01:23.571Z</time>
      </trkpt>
      <trkpt lat="51.314418" lon="9.561194">
        <ele>155.382032</ele>
        <time>2026-03-20T11:01:45.711Z</time>
      </trkpt>
      <trkpt lat="51.313947" lon="9.561989">
        <ele>156.000838</ele>
        <time>2026-03-20T11:02:00.562Z</time>
      </trkpt>
      <trkpt lat="51.313882" lon="9.562112">
        <ele>155.937957</ele>
        <time>2026-03-20T11:02:02.638Z</time>
      </trkpt>
      <trkpt lat="51.313710" lon="9.562497">
        <ele>155.753207</ele>
        <time>2026-03-20T11:02:08.132Z</time>
      </trkpt>
      <trkpt lat="51.313580" lon="9.562071">
        <ele>155.568133</ele>
        <time>2026-03-20T11:02:13.378Z</time>
      </trkpt>
      <trkpt lat="51.313468" lon="9.561977">
        <ele>155.489137</ele>
        <time>2026-03-20T11:02:15.691Z</time>
      </trkpt>
      <trkpt lat="51.313580" lon="9.562071">
        <ele>155.410142</ele>
        <time>2026-03-20T11:02:18.062Z</time>
      </trkpt>
      <trkpt lat="51.313710" lon="9.562497">
        <ele>155.225067</ele>
        <time>2026-03-20T11:02:23.865Z</time>
      </trkpt>
      <trkpt lat="51.313532" lon="9.563022">
        <ele>155.089949</ele>
        <time>2026-03-20T11:02:32.236Z</time>
      </trkpt>
      <trkpt lat="51.313394" lon="9.563516">
        <ele>155.598685</ele>
        <time>2026-03-20T11:02:41.390Z</time>
      </trkpt>
      <trkpt lat="51.312790" lon="9.565941">
        <ele>158.251139</ele>
        <time>2026-03-20T11:03:29.385Z</time>
      </trkpt>
      <trkpt lat="51.312026" lon="9.568837">
        <ele>162.598187</ele>
        <time>2026-03-20T11:04:33.839Z</time>
      </trkpt>
      <trkpt lat="51.311823" lon="9.569795">
        <ele>163.467087</ele>
        <time>2026-03-20T11:04:50.988Z</time>
      </trkpt>
      <trkpt lat="51.311732" lon="9.570503">
        <ele>164.087970</ele>
        <time>2026-03-20T11:05:02.222Z</time>
      </trkpt>
      <trkpt lat="51.311556" lon="9.572482">
        <ele>164.865244</ele>
        <time>2026-03-20T11:05:34.604Z</time>
      </trkpt>
      <trkpt lat="51.311542" lon="9.572684">
        <ele>164.909836</ele>
        <time>2026-03-20T11:05:37.593Z</time>
      </trkpt>
      <trkpt lat="51.311701" lon="9.573919">
        <ele>165.167529</ele>
        <time>2026-03-20T11:05:54.351Z</time>
      </trkpt>
      <trkpt lat="51.311659" lon="9.574195">
        <ele>165.133813</ele>
        <time>2026-03-20T11:05:58.055Z</time>
      </trkpt>
      <trkpt lat="51.311489" lon="9.574297">
        <ele>165.099338</ele>
        <time>2026-03-20T11:06:01.780Z</time>
      </trkpt>
      <trkpt lat="51.311380" lon="9.574351">
        <ele>165.077671</ele>
        <time>2026-03-20T11:06:04.144Z</time>
      </trkpt>
      <trkpt lat="51.311488" lon="9.574669">
        <ele>165.034716</ele>
        <time>2026-03-20T11:06:08.723Z</time>
      </trkpt>
      <trkpt lat="51.311795" lon="9.576151">
        <ele>164.849407</ele>
        <time>2026-03-20T11:06:29.442Z</time>
      </trkpt>
      <trkpt lat="51.311871" lon="9.576350">
        <ele>164.871879</ele>
        <time>2026-03-20T11:06:33.051Z</time>
      </trkpt>
      <trkpt lat="51.311897" lon="9.576542">
        <ele>164.955545</ele>
        <time>2026-03-20T11:06:36.090Z</time>
      </trkpt>
      <trkpt lat="51.311967" lon="9.576797">
        <ele>165.074156</ele>
        <time>2026-03-20T11:06:40.429Z</time>
      </trkpt>
      <trkpt lat="51.312146" lon="9.577273">
        <ele>165.310733</ele>
        <time>2026-03-20T11:06:49.086Z</time>
      </trkpt>
      <trkpt lat="51.312216" lon="9.577552">
        <ele>165.438768</ele>
        <time>2026-03-20T11:06:53.758Z</time>
      </trkpt>
      <trkpt lat="51.312046" lon="9.577556">
        <ele>165.554606</ele>
        <time>2026-03-20T11:06:57.990Z</time>
      </trkpt>
      <trkpt lat="51.312001" lon="9.577595">
        <ele>165.589475</ele>
        <time>2026-03-20T11:06:59.249Z</time>
      </trkpt>
      <trkpt lat="51.312563" lon="9.578412">
        <ele>166.260309</ele>
        <time>2026-03-20T11:07:18.488Z</time>
      </trkpt>
      <trkpt lat="51.312676" lon="9.578636">
        <ele>166.768895</ele>
        <time>2026-03-20T11:07:23.181Z</time>
      </trkpt>
      <trkpt lat="51.312928" lon="9.579164">
        <ele>167.942640</ele>
        <time>2026-03-20T11:07:35.280Z</time>
      </trkpt>
      <trkpt lat="51.313071" lon="9.579620">
        <ele>168.844027</ele>
        <time>2026-03-20T11:07:45.505Z</time>
      </trkpt>
      <trkpt lat="51.313094" lon="9.579680">
        <ele>168.968385</ele>
        <time>2026-03-20T11:07:46.951Z</time>
      </trkpt>
      <trkpt lat="51.313153" lon="9.579883">
        <ele>169.363928</ele>
        <time>2026-03-20T11:07:51.732Z</time>
      </trkpt>
      <trkpt lat="51.313132" lon="9.580008">
        <ele>169.592619</ele>
        <time>2026-03-20T11:07:54.587Z</time>
      </trkpt>
      <trkpt lat="51.313432" lon="9.581692">
        <ele>173.438731</ele>
        <time>2026-03-20T11:08:40.154Z</time>
      </trkpt>
      <trkpt lat="51.313528" lon="9.582078">
        <ele>174.530309</ele>
        <time>2026-03-20T11:08:51.521Z</time>
      </trkpt>
      <trkpt lat="51.313951" lon="9.583305">
        <ele>178.212170</ele>
        <time>2026-03-20T11:09:27.417Z</time>
      </trkpt>
      <trkpt lat="51.314348" lon="9.584295">
        <ele>178.806877</ele>
        <time>2026-03-20T11:09:47.260Z</time>
      </trkpt>
      <trkpt lat="51.314927" lon="9.585570">
        <ele>178.972021</ele>
        <time>2026-03-20T11:10:06.004Z</time>
      </trkpt>
      <trkpt lat="51.315163" lon="9.585966">
        <ele>179.284753</ele>
        <time>2026-03-20T11:10:12.514Z</time>
      </trkpt>
      <trkpt lat="51.315134" lon="9.586374">
        <ele>179.774304</ele>
        <time>2026-03-20T11:10:22.049Z</time>
      </trkpt>
      <trkpt lat="51.315172" lon="9.586604">
        <ele>180.057927</ele>
        <time>2026-03-20T11:10:27.881Z</time>
      </trkpt>
      <trkpt lat="51.315180" lon="9.586863">
        <ele>180.367082</ele>
        <time>2026-03-20T11:10:34.496Z</time>
      </trkpt>
      <trkpt lat="51.315181" lon="9.587028">
        <ele>180.563804</ele>
        <time>2026-03-20T11:10:38.841Z</time>
      </trkpt>
      <trkpt lat="51.315161" lon="9.587312">
        <ele>180.904530</ele>
        <time>2026-03-20T11:10:46.676Z</time>
      </trkpt>
      <trkpt lat="51.315321" lon="9.587524">
        <ele>181.300785</ele>
        <time>2026-03-20T11:10:56.394Z</time>
      </trkpt>
      <trkpt lat="51.315486" lon="9.587853">
        <ele>181.803671</ele>
        <time>2026-03-20T11:11:10.215Z</time>
      </trkpt>
      <trkpt lat="51.315907" lon="9.588861">
        <ele>184.574809</ele>
        <time>2026-03-20T11:11:51.882Z</time>
      </trkpt>
      <trkpt lat="51.316361" lon="9.590327">
        <ele>189.704094</ele>
        <time>2026-03-20T11:12:51.382Z</time>
      </trkpt>
      <trkpt lat="51.316740" lon="9.591689">
        <ele>194.643671</ele>
        <time>2026-03-20T11:13:45.721Z</time>
      </trkpt>
      <trkpt lat="51.317039" lon="9.592639">
        <ele>198.281445</ele>
        <time>2026-03-20T11:14:26.567Z</time>
      </trkpt>
      <trkpt lat="51.317242" lon="9.593500">
        <ele>201.337245</ele>
        <time>2026-03-20T11:15:01.843Z</time>
      </trkpt>
      <trkpt lat="51.317362" lon="9.594289">
        <ele>202.146872</ele>
        <time>2026-03-20T11:15:28.594Z</time>
      </trkpt>
      <trkpt lat="51.317588" lon="9.595120">
        <ele>203.050457</ele>
        <time>2026-03-20T11:15:52.550Z</time>
      </trkpt>
      <trkpt lat="51.317756" lon="9.595592">
        <ele>203.592022</ele>
        <time>2026-03-20T11:16:04.783Z</time>
      </trkpt>
      <trkpt lat="51.317955" lon="9.596032">
        <ele>204.133531</ele>
        <time>2026-03-20T11:16:15.898Z</time>
      </trkpt>
      <trkpt lat="51.318270" lon="9.596590">
        <ele>204.280472</ele>
        <time>2026-03-20T11:16:31.538Z</time>
      </trkpt>
      <trkpt lat="51.318934" lon="9.597582">
        <ele>204.506785</ele>
        <time>2026-03-20T11:17:08.653Z</time>
      </trkpt>
      <trkpt lat="51.319103" lon="9.597761">
        <ele>204.557275</ele>
        <time>2026-03-20T11:17:17.593Z</time>
      </trkpt>
      <trkpt lat="51.319691" lon="9.598170">
        <ele>203.839946</ele>
        <time>2026-03-20T11:17:42.061Z</time>
      </trkpt>
      <trkpt lat="51.319984" lon="9.598312">
        <ele>203.247285</ele>
        <time>2026-03-20T11:17:51.963Z</time>
      </trkpt>
      <trkpt lat="51.320463" lon="9.598403">
        <ele>202.313485</ele>
        <time>2026-03-20T11:18:06.511Z</time>
      </trkpt>
      <trkpt lat="51.320803" lon="9.598396">
        <ele>201.655231</ele>
        <time>2026-03-20T11:18:16.434Z</time>
      </trkpt>
      <trkpt lat="51.321526" lon="9.598520">
        <ele>200.976053</ele>
        <time>2026-03-20T11:18:37.490Z</time>
      </trkpt>
      <trkpt lat="51.322248" lon="9.598806">
        <ele>200.718094</ele>
        <time>2026-03-20T11:19:02.022Z</time>
      </trkpt>
      <trkpt lat="51.322620" lon="9.599060">
        <ele>200.577825</ele>
        <time>2026-03-20T11:19:19.982Z</time>
      </trkpt>
      <trkpt lat="51.322913" lon="9.599509">
        <ele>201.443703</ele>
        <time>2026-03-20T11:19:41.535Z</time>
      </trkpt>
      <trkpt lat="51.323272" lon="9.600290">
        <ele>204.087111</ele>
        <time>2026-03-20T11:20:17.710Z</time>
      </trkpt>
      <trkpt lat="51.323558" lon="9.600668">
        <ele>205.705491</ele>
        <time>2026-03-20T11:20:40.362Z</time>
      </trkpt>
      <trkpt lat="51.323670" lon="9.601047">
        <ele>206.848538</ele>
        <time>2026-03-20T11:20:55.622Z</time>
      </trkpt>
      <trkpt lat="51.323684" lon="9.601254">
        <ele>207.416213</ele>
        <time>2026-03-20T11:21:02.815Z</time>
      </trkpt>
      <trkpt lat="51.323662" lon="9.601680">
        <ele>208.405811</ele>
        <time>2026-03-20T11:21:16.820Z</time>
      </trkpt>
      <trkpt lat="51.322795" lon="9.604667">
        <ele>209.588504</ele>
        <time>2026-03-20T11:22:36.795Z</time>
      </trkpt>
      <trkpt lat="51.322674" lon="9.605288">
        <ele>209.023572</ele>
        <time>2026-03-20T11:22:50.459Z</time>
      </trkpt>
      <trkpt lat="51.322562" lon="9.606374">
        <ele>208.067644</ele>
        <time>2026-03-20T11:23:12.522Z</time>
      </trkpt>
      <trkpt lat="51.322681" lon="9.607124">
        <ele>207.221380</ele>
        <time>2026-03-20T11:23:27.305Z</time>
      </trkpt>
      <trkpt lat="51.322799" lon="9.607644">
        <ele>206.071294</ele>
        <time>2026-03-20T11:23:37.528Z</time>
      </trkpt>
      <trkpt lat="51.323053" lon="9.608237">
        <ele>204.576742</ele>
        <time>2026-03-20T11:23:50.483Z</time>
      </trkpt>
      <trkpt lat="51.323308" lon="9.608550">
        <ele>203.507644</ele>
        <time>2026-03-20T11:23:59.644Z</time>
      </trkpt>
      <trkpt lat="51.323662" lon="9.608813">
        <ele>202.209302</ele>
        <time>2026-03-20T11:24:10.842Z</time>
      </trkpt>
      <trkpt lat="51.324109" lon="9.609079">
        <ele>201.219408</ele>
        <time>2026-03-20T11:24:24.898Z</time>
      </trkpt>
      <trkpt lat="51.324667" lon="9.609583">
        <ele>200.478454</ele>
        <time>2026-03-20T11:24:44.915Z</time>
      </trkpt>
      <trkpt lat="51.325576" lon="9.610053">
        <ele>199.591389</ele>
        <time>2026-03-20T11:25:20.012Z</time>
      </trkpt>
      <trkpt lat="51.326205" lon="9.610392">
        <ele>200.822140</ele>
        <time>2026-03-20T11:25:50.715Z</time>
      </trkpt>
      <trkpt lat="51.326315" lon="9.610511">
        <ele>201.068353</ele>
        <time>2026-03-20T11:25:56.785Z</time>
      </trkpt>
      <trkpt lat="51.326572" lon="9.610967">
        <ele>201.779906</ele>
        <time>2026-03-20T11:26:14.407Z</time>
      </trkpt>
      <trkpt lat="51.326735" lon="9.611267">
        <ele>202.240558</ele>
        <time>2026-03-20T11:26:25.643Z</time>
      </trkpt>
      <trkpt lat="51.327278" lon="9.612645">
        <ele>203.776661</ele>
        <time>2026-03-20T11:27:11.873Z</time>
      </trkpt>
      <trkpt lat="51.327586" lon="9.613829">
        <ele>204.871515</ele>
        <time>2026-03-20T11:27:43.005Z</time>
      </trkpt>
      <trkpt lat="51.327728" lon="9.614264">
        <ele>205.256185</ele>
        <time>2026-03-20T11:27:56.292Z</time>
      </trkpt>
      <trkpt lat="51.327877" lon="9.614601">
        <ele>205.310455</ele>
        <time>2026-03-20T11:28:08.452Z</time>
      </trkpt>
      <trkpt lat="51.328006" lon="9.614820">
        <ele>205.350019</ele>
        <time>2026-03-20T11:28:14.190Z</time>
      </trkpt>
      <trkpt lat="51.328028" lon="9.614857">
        <ele>205.356733</ele>
        <time>2026-03-20T11:28:15.021Z</time>
      </trkpt>
      <trkpt lat="51.328085" lon="9.615122">
        <ele>205.393576</ele>
        <time>2026-03-20T11:28:19.581Z</time>
      </trkpt>
      <trkpt lat="51.328085" lon="9.615273">
        <ele>205.413426</ele>
        <time>2026-03-20T11:28:21.897Z</time>
      </trkpt>
      <trkpt lat="51.327997" lon="9.615775">
        <ele>205.481965</ele>
        <time>2026-03-20T11:28:28.894Z</time>
      </trkpt>
      <trkpt lat="51.327994" lon="9.616155">
        <ele>205.531923</ele>
        <time>2026-03-20T11:28:33.962Z</time>
      </trkpt>
      <trkpt lat="51.328032" lon="9.616372">
        <ele>205.561549</ele>
        <time>2026-03-20T11:28:36.889Z</time>
      </trkpt>
      <trkpt lat="51.328125" lon="9.616695">
        <ele>205.608300</ele>
        <time>2026-03-20T11:28:41.695Z</time>
      </trkpt>
      <trkpt lat="51.328337" lon="9.616997">
        <ele>205.580512</ele>
        <time>2026-03-20T11:28:47.971Z</time>
      </trkpt>
      <trkpt lat="51.328429" lon="9.617208">
        <ele>205.539737</ele>
        <time>2026-03-20T11:28:51.018Z</time>
      </trkpt>
      <trkpt lat="51.328667" lon="9.618343">
        <ele>205.350007</ele>
        <time>2026-03-20T11:29:06.194Z</time>
      </trkpt>
      <trkpt lat="51.328669" lon="9.618677">
        <ele>205.297073</ele>
        <time>2026-03-20T11:29:11.785Z</time>
      </trkpt>
      <trkpt lat="51.328770" lon="9.618651">
        <ele>205.271128</ele>
        <time>2026-03-20T11:29:15.129Z</time>
      </trkpt>
      <trkpt lat="51.328820" lon="9.618645">
        <ele>205.258412</ele>
        <time>2026-03-20T11:29:16.902Z</time>
      </trkpt>
      <trkpt lat="51.328785" lon="9.618772">
        <ele>205.236414</ele>
        <time>2026-03-20T11:29:19.205Z</time>
      </trkpt>
      <trkpt lat="51.328697" lon="9.619616">
        <ele>205.528189</ele>
        <time>2026-03-20T11:29:35.138Z</time>
      </trkpt>
      <trkpt lat="51.328613" lon="9.621045">
        <ele>206.663195</ele>
        <time>2026-03-20T11:30:02.899Z</time>
      </trkpt>
      <trkpt lat="51.328525" lon="9.621481">
        <ele>207.025513</ele>
        <time>2026-03-20T11:30:10.204Z</time>
      </trkpt>
      <trkpt lat="51.328501" lon="9.621600">
        <ele>207.124396</ele>
        <time>2026-03-20T11:30:12.100Z</time>
      </trkpt>
      <trkpt lat="51.328362" lon="9.622246">
        <ele>207.399317</ele>
        <time>2026-03-20T11:30:22.221Z</time>
      </trkpt>
      <trkpt lat="51.328313" lon="9.622487">
        <ele>207.353820</ele>
        <time>2026-03-20T11:30:25.503Z</time>
      </trkpt>
      <trkpt lat="51.328321" lon="9.622634">
        <ele>207.327331</ele>
        <time>2026-03-20T11:30:27.352Z</time>
      </trkpt>
      <trkpt lat="51.328441" lon="9.622894">
        <ele>207.269304</ele>
        <time>2026-03-20T11:30:31.345Z</time>
      </trkpt>
      <trkpt lat="51.328773" lon="9.623582">
        <ele>207.113252</ele>
        <time>2026-03-20T11:30:41.920Z</time>
      </trkpt>
      <trkpt lat="51.328473" lon="9.624051">
        <ele>206.992764</ele>
        <time>2026-03-20T11:30:51.334Z</time>
      </trkpt>
      <trkpt lat="51.328441" lon="9.624218">
        <ele>206.961407</ele>
        <time>2026-03-20T11:30:54.076Z</time>
      </trkpt>
      <trkpt lat="51.328458" lon="9.624273">
        <ele>206.950391</ele>
        <time>2026-03-20T11:30:55.042Z</time>
      </trkpt>
      <trkpt lat="51.328422" lon="9.624503">
        <ele>207.078967</ele>
        <time>2026-03-20T11:30:58.965Z</time>
      </trkpt>
      <trkpt lat="51.327304" lon="9.628737">
        <ele>211.429360</ele>
        <time>2026-03-20T11:32:29.293Z</time>
      </trkpt>
      <trkpt lat="51.327307" lon="9.628847">
        <ele>211.506998</ele>
        <time>2026-03-20T11:32:30.838Z</time>
      </trkpt>
      <trkpt lat="51.327360" lon="9.628935">
        <ele>211.593180</ele>
        <time>2026-03-20T11:32:32.586Z</time>
      </trkpt>
      <trkpt lat="51.327941" lon="9.629382">
        <ele>212.167360</ele>
        <time>2026-03-20T11:32:46.410Z</time>
      </trkpt>
      <trkpt lat="51.328063" lon="9.629480">
        <ele>212.179758</ele>
        <time>2026-03-20T11:32:49.273Z</time>
      </trkpt>
      <trkpt lat="51.328271" lon="9.629535">
        <ele>212.198907</ele>
        <time>2026-03-20T11:32:53.567Z</time>
      </trkpt>
      <trkpt lat="51.328255" lon="9.629667">
        <ele>212.206538</ele>
        <time>2026-03-20T11:32:55.196Z</time>
      </trkpt>
      <trkpt lat="51.328231" lon="9.629862">
        <ele>212.217818</ele>
        <time>2026-03-20T11:32:57.654Z</time>
      </trkpt>
      <trkpt lat="51.328141" lon="9.630365">
        <ele>212.247513</ele>
        <time>2026-03-20T11:33:04.973Z</time>
      </trkpt>
      <trkpt lat="51.328005" lon="9.630911">
        <ele>212.280873</ele>
        <time>2026-03-20T11:33:14.697Z</time>
      </trkpt>
      <trkpt lat="51.327681" lon="9.632015">
        <ele>212.584663</ele>
        <time>2026-03-20T11:33:33.454Z</time>
      </trkpt>
      <trkpt lat="51.327631" lon="9.632185">
        <ele>212.671619</ele>
        <time>2026-03-20T11:33:36.415Z</time>
      </trkpt>
      <trkpt lat="51.327484" lon="9.632081">
        <ele>212.790658</ele>
        <time>2026-03-20T11:33:41.455Z</time>
      </trkpt>
      <trkpt lat="51.327446" lon="9.632102">
        <ele>212.820434</ele>
        <time>2026-03-20T11:33:42.699Z</time>
      </trkpt>
      <trkpt lat="51.327397" lon="9.632218">
        <ele>212.885235</ele>
        <time>2026-03-20T11:33:45.480Z</time>
      </trkpt>
      <trkpt lat="51.327154" lon="9.633213">
        <ele>213.379647</ele>
        <time>2026-03-20T11:34:06.457Z</time>
      </trkpt>
      <trkpt lat="51.326601" lon="9.635007">
        <ele>214.643726</ele>
        <time>2026-03-20T11:34:39.880Z</time>
      </trkpt>
      <trkpt lat="51.326315" lon="9.635687">
        <ele>215.218708</ele>
        <time>2026-03-20T11:34:53.856Z</time>
      </trkpt>
      <trkpt lat="51.326061" lon="9.636096">
        <ele>215.623200</ele>
        <time>2026-03-20T11:35:03.607Z</time>
      </trkpt>
      <trkpt lat="51.325462" lon="9.636793">
        <ele>216.553114</ele>
        <time>2026-03-20T11:35:23.605Z</time>
      </trkpt>
      <trkpt lat="51.325394" lon="9.636848">
        <ele>216.649366</ele>
        <time>2026-03-20T11:35:25.661Z</time>
      </trkpt>
      <trkpt lat="51.325139" lon="9.636878">
        <ele>216.972372</ele>
        <time>2026-03-20T11:35:32.723Z</time>
      </trkpt>
      <trkpt lat="51.325079" lon="9.636919">
        <ele>217.054790</ele>
        <time>2026-03-20T11:35:34.496Z</time>
      </trkpt>
      <trkpt lat="51.325044" lon="9.636942">
        <ele>217.102588</ele>
        <time>2026-03-20T11:35:35.555Z</time>
      </trkpt>
      <trkpt lat="51.324781" lon="9.637234">
        <ele>217.506966</ele>
        <time>2026-03-20T11:35:44.275Z</time>
      </trkpt>
      <trkpt lat="51.324729" lon="9.637346">
        <ele>217.617115</ele>
        <time>2026-03-20T11:35:46.628Z</time>
      </trkpt>
      <trkpt lat="51.324695" lon="9.637545">
        <ele>217.779978</ele>
        <time>2026-03-20T11:35:50.115Z</time>
      </trkpt>
      <trkpt lat="51.324814" lon="9.637595">
        <ele>217.935404</ele>
        <time>2026-03-20T11:35:53.438Z</time>
      </trkpt>
      <trkpt lat="51.324874" lon="9.637688">
        <ele>218.084252</ele>
        <time>2026-03-20T11:35:55.675Z</time>
      </trkpt>
      <trkpt lat="51.324910" lon="9.637738">
        <ele>218.170513</ele>
        <time>2026-03-20T11:35:56.978Z</time>
      </trkpt>
      <trkpt lat="51.324786" lon="9.637918">
        <ele>218.473472</ele>
        <time>2026-03-20T11:36:01.473Z</time>
      </trkpt>
      <trkpt lat="51.323852" lon="9.639292">
        <ele>220.769327</ele>
        <time>2026-03-20T11:36:38.236Z</time>
      </trkpt>
      <trkpt lat="51.323107" lon="9.640416">
        <ele>222.447881</ele>
        <time>2026-03-20T11:37:12.524Z</time>
      </trkpt>
      <trkpt lat="51.322464" lon="9.641308">
        <ele>223.799653</ele>
        <time>2026-03-20T11:37:35.036Z</time>
      </trkpt>
      <trkpt lat="51.322416" lon="9.641345">
        <ele>223.884285</ele>
        <time>2026-03-20T11:37:36.196Z</time>
      </trkpt>
      <trkpt lat="51.322315" lon="9.641347">
        <ele>224.044733</ele>
        <time>2026-03-20T11:37:38.381Z</time>
      </trkpt>
      <trkpt lat="51.322002" lon="9.640595">
        <ele>225.416625</ele>
        <time>2026-03-20T11:37:51.836Z</time>
      </trkpt>
      <trkpt lat="51.321842" lon="9.640256">
        <ele>226.063659</ele>
        <time>2026-03-20T11:37:59.086Z</time>
      </trkpt>
      <trkpt lat="51.321721" lon="9.640098">
        <ele>226.444285</ele>
        <time>2026-03-20T11:38:03.563Z</time>
      </trkpt>
      <trkpt lat="51.321605" lon="9.640000">
        <ele>226.763980</ele>
        <time>2026-03-20T11:38:07.463Z</time>
      </trkpt>
      <trkpt lat="51.321579" lon="9.639978">
        <ele>226.835661</ele>
        <time>2026-03-20T11:38:08.382Z</time>
      </trkpt>
      <trkpt lat="51.321501" lon="9.639913">
        <ele>227.049994</ele>
        <time>2026-03-20T11:38:11.256Z</time>
      </trkpt>
      <trkpt lat="51.320951" lon="9.639431">
        <ele>228.844585</ele>
        <time>2026-03-20T11:38:36.832Z</time>
      </trkpt>
      <trkpt lat="51.319918" lon="9.640380">
        <ele>237.189916</ele>
        <time>2026-03-20T11:39:57.590Z</time>
      </trkpt>
      <trkpt lat="51.319276" lon="9.641181">
        <ele>242.512402</ele>
        <time>2026-03-20T11:40:42.422Z</time>
      </trkpt>
      <trkpt lat="51.318567" lon="9.641796">
        <ele>247.002071</ele>
        <time>2026-03-20T11:41:21.512Z</time>
      </trkpt>
      <trkpt lat="51.317859" lon="9.642486">
        <ele>251.246753</ele>
        <time>2026-03-20T11:41:55.933Z</time>
      </trkpt>
      <trkpt lat="51.317529" lon="9.642883">
        <ele>252.042372</ele>
        <time>2026-03-20T11:42:13.689Z</time>
      </trkpt>
      <trkpt lat="51.317264" lon="9.643152">
        <ele>252.647135</ele>
        <time>2026-03-20T11:42:25.232Z</time>
      </trkpt>
      <trkpt lat="51.316845" lon="9.643263">
        <ele>253.465549</ele>
        <time>2026-03-20T11:42:38.887Z</time>
      </trkpt>
      <trkpt lat="51.316770" lon="9.643327">
        <ele>253.629346</ele>
        <time>2026-03-20T11:42:41.360Z</time>
      </trkpt>
      <trkpt lat="51.316727" lon="9.643450">
        <ele>253.799088</ele>
        <time>2026-03-20T11:42:43.875Z</time>
      </trkpt>
      <trkpt lat="51.316696" lon="9.643901">
        <ele>254.345554</ele>
        <time>2026-03-20T11:42:50.929Z</time>
      </trkpt>
      <trkpt lat="51.316648" lon="9.644145">
        <ele>254.352441</ele>
        <time>2026-03-20T11:42:54.492Z</time>
      </trkpt>
      <trkpt lat="51.316064" lon="9.646050">
        <ele>251.286213</ele>
        <time>2026-03-20T11:43:18.965Z</time>
      </trkpt>
      <trkpt lat="51.315727" lon="9.647545">
        <ele>250.167798</ele>
        <time>2026-03-20T11:43:39.032Z</time>
      </trkpt>
      <trkpt lat="51.315497" lon="9.648234">
        <ele>250.010834</ele>
        <time>2026-03-20T11:43:50.889Z</time>
      </trkpt>
      <trkpt lat="51.315362" lon="9.648837">
        <ele>249.882121</ele>
        <time>2026-03-20T11:44:01.413Z</time>
      </trkpt>
      <trkpt lat="51.314855" lon="9.650297">
        <ele>250.832577</ele>
        <time>2026-03-20T11:44:32.476Z</time>
      </trkpt>
      <trkpt lat="51.314679" lon="9.650656">
        <ele>251.246241</ele>
        <time>2026-03-20T11:44:41.814Z</time>
      </trkpt>
      <trkpt lat="51.313524" lon="9.652352">
        <ele>251.924915</ele>
        <time>2026-03-20T11:45:30.218Z</time>
      </trkpt>
      <trkpt lat="51.312844" lon="9.653822">
        <ele>251.182631</ele>
        <time>2026-03-20T11:45:52.490Z</time>
      </trkpt>
      <trkpt lat="51.312956" lon="9.654037">
        <ele>250.990849</ele>
        <time>2026-03-20T11:45:55.416Z</time>
      </trkpt>
      <trkpt lat="51.312884" lon="9.654415">
        <ele>250.720070</ele>
        <time>2026-03-20T11:45:59.851Z</time>
      </trkpt>
      <trkpt lat="51.312650" lon="9.655416">
        <ele>249.987745</ele>
        <time>2026-03-20T11:46:12.231Z</time>
      </trkpt>
      <trkpt lat="51.312393" lon="9.655244">
        <ele>249.682345</ele>
        <time>2026-03-20T11:46:17.991Z</time>
      </trkpt>
      <trkpt lat="51.312127" lon="9.656581">
        <ele>249.613194</ele>
        <time>2026-03-20T11:46:39.661Z</time>
      </trkpt>
      <trkpt lat="51.311850" lon="9.657715">
        <ele>249.967291</ele>
        <time>2026-03-20T11:46:57.153Z</time>
      </trkpt>
      <trkpt lat="51.311852" lon="9.657960">
        <ele>250.038552</ele>
        <time>2026-03-20T11:47:00.863Z</time>
      </trkpt>
      <trkpt lat="51.311852" lon="9.658035">
        <ele>250.060365</ele>
        <time>2026-03-20T11:47:02.006Z</time>
      </trkpt>
      <trkpt lat="51.311826" lon="9.659619">
        <ele>251.100287</ele>
        <time>2026-03-20T11:47:28.268Z</time>
      </trkpt>
      <trkpt lat="51.311784" lon="9.659898">
        <ele>251.327161</ele>
        <time>2026-03-20T11:47:33.341Z</time>
      </trkpt>
      <trkpt lat="51.311660" lon="9.660404">
        <ele>251.756830</ele>
        <time>2026-03-20T11:47:42.983Z</time>
      </trkpt>
      <trkpt lat="51.311576" lon="9.660916">
        <ele>252.175310</ele>
        <time>2026-03-20T11:47:52.276Z</time>
      </trkpt>
      <trkpt lat="51.311566" lon="9.661582">
        <ele>252.715280</ele>
        <time>2026-03-20T11:48:03.907Z</time>
      </trkpt>
      <trkpt lat="51.311479" lon="9.662328">
        <ele>253.348058</ele>
        <time>2026-03-20T11:48:16.984Z</time>
      </trkpt>
      <trkpt lat="51.311437" lon="9.663001">
        <ele>253.912023</ele>
        <time>2026-03-20T11:48:28.719Z</time>
      </trkpt>
      <trkpt lat="51.311422" lon="9.663918">
        <ele>254.676917</ele>
        <time>2026-03-20T11:48:44.706Z</time>
      </trkpt>
      <trkpt lat="51.311417" lon="9.665059">
        <ele>255.701075</ele>
        <time>2026-03-20T11:49:03.328Z</time>
      </trkpt>
      <trkpt lat="51.311430" lon="9.665516">
        <ele>256.118560</ele>
        <time>2026-03-20T11:49:10.645Z</time>
      </trkpt>
      <trkpt lat="51.311556" lon="9.666310">
        <ele>256.866141</ele>
        <time>2026-03-20T11:49:24.654Z</time>
      </trkpt>
      <trkpt lat="51.311642" lon="9.666760">
        <ele>257.295569</ele>
        <time>2026-03-20T11:49:33.290Z</time>
      </trkpt>
      <trkpt lat="51.311686" lon="9.667232">
        <ele>258.252070</ele>
        <time>2026-03-20T11:49:42.568Z</time>
      </trkpt>
      <trkpt lat="51.311676" lon="9.667381">
        <ele>258.677475</ele>
        <time>2026-03-20T11:49:45.572Z</time>
      </trkpt>
      <trkpt lat="51.311353" lon="9.668598">
        <ele>262.430757</ele>
        <time>2026-03-20T11:50:17.033Z</time>
      </trkpt>
      <trkpt lat="51.311217" lon="9.668645">
        <ele>263.062632</ele>
        <time>2026-03-20T11:50:23.048Z</time>
      </trkpt>
      <trkpt lat="51.311083" lon="9.668608">
        <ele>263.680176</ele>
        <time>2026-03-20T11:50:28.885Z</time>
      </trkpt>
      <trkpt lat="51.310893" lon="9.668523">
        <ele>264.576144</ele>
        <time>2026-03-20T11:50:38.026Z</time>
      </trkpt>
      <trkpt lat="51.310659" lon="9.668288">
        <ele>265.978837</ele>
        <time>2026-03-20T11:50:51.881Z</time>
      </trkpt>
      <trkpt lat="51.310365" lon="9.667991">
        <ele>268.868325</ele>
        <time>2026-03-20T11:51:11.106Z</time>
      </trkpt>
      <trkpt lat="51.310352" lon="9.667981">
        <ele>268.988195</ele>
        <time>2026-03-20T11:51:11.929Z</time>
      </trkpt>
      <trkpt lat="51.310123" lon="9.667778">
        <ele>271.163823</ele>
        <time>2026-03-20T11:51:26.673Z</time>
      </trkpt>
      <trkpt lat="51.309498" lon="9.667265">
        <ele>277.001335</ele>
        <time>2026-03-20T11:52:07.608Z</time>
      </trkpt>
      <trkpt lat="51.309345" lon="9.667120">
        <ele>278.479136</ele>
        <time>2026-03-20T11:52:18.049Z</time>
      </trkpt>
      <trkpt lat="51.308777" lon="9.667020">
        <ele>283.524388</ele>
        <time>2026-03-20T11:52:52.355Z</time>
      </trkpt>
      <trkpt lat="51.308443" lon="9.666947">
        <ele>286.641903</ele>
        <time>2026-03-20T11:53:12.272Z</time>
      </trkpt>
      <trkpt lat="51.308095" lon="9.666921">
        <ele>289.863701</ele>
        <time>2026-03-20T11:53:32.405Z</time>
      </trkpt>
      <trkpt lat="51.307768" lon="9.666829">
        <ele>292.934200</ele>
        <time>2026-03-20T11:53:52.565Z</time>
      </trkpt>
      <trkpt lat="51.306260" lon="9.666591">
        <ele>306.416716</ele>
        <time>2026-03-20T11:55:26.616Z</time>
      </trkpt>
      <trkpt lat="51.305083" lon="9.666378">
        <ele>314.618587</ele>
        <time>2026-03-20T11:56:29.379Z</time>
      </trkpt>
      <trkpt lat="51.304906" lon="9.662240">
        <ele>321.444060</ele>
        <time>2026-03-20T11:57:51.437Z</time>
      </trkpt>
      <trkpt lat="51.304677" lon="9.658003">
        <ele>321.111559</ele>
        <time>2026-03-20T11:58:44.444Z</time>
      </trkpt>
      <trkpt lat="51.304661" lon="9.657239">
        <ele>321.156356</ele>
        <time>2026-03-20T11:58:55.098Z</time>
      </trkpt>
      <trkpt lat="51.305221" lon="9.654604">
        <ele>319.927698</ele>
        <time>2026-03-20T11:59:36.857Z</time>
      </trkpt>
      <trkpt lat="51.305280" lon="9.654651">
        <ele>319.804924</ele>
        <time>2026-03-20T11:59:38.594Z</time>
      </trkpt>
      <trkpt lat="51.305221" lon="9.654604">
        <ele>319.682150</ele>
        <time>2026-03-20T11:59:40.320Z</time>
      </trkpt>
      <trkpt lat="51.305366" lon="9.653897">
        <ele>318.815673</ele>
        <time>2026-03-20T11:59:48.271Z</time>
      </trkpt>
      <trkpt lat="51.305525" lon="9.653123">
        <ele>317.803175</ele>
        <time>2026-03-20T11:59:56.166Z</time>
      </trkpt>
      <trkpt lat="51.305584" lon="9.652854">
        <ele>316.874903</ele>
        <time>2026-03-20T11:59:59.001Z</time>
      </trkpt>
      <trkpt lat="51.305790" lon="9.651850">
        <ele>313.434072</ele>
        <time>2026-03-20T12:00:08.805Z</time>
      </trkpt>
      <trkpt lat="51.305889" lon="9.651380">
        <ele>311.819113</ele>
        <time>2026-03-20T12:00:13.397Z</time>
      </trkpt>
      <trkpt lat="51.305716" lon="9.651210">
        <ele>310.761576</ele>
        <time>2026-03-20T12:00:16.414Z</time>
      </trkpt>
      <trkpt lat="51.305617" lon="9.651108">
        <ele>310.148216</ele>
        <time>2026-03-20T12:00:18.168Z</time>
      </trkpt>
      <trkpt lat="51.305531" lon="9.651023">
        <ele>309.621664</ele>
        <time>2026-03-20T12:00:19.702Z</time>
      </trkpt>
      <trkpt lat="51.305154" lon="9.650654">
        <ele>307.182673</ele>
        <time>2026-03-20T12:00:26.443Z</time>
      </trkpt>
      <trkpt lat="51.303600" lon="9.649107">
        <ele>296.333214</ele>
        <time>2026-03-20T12:00:53.343Z</time>
      </trkpt>
      <trkpt lat="51.303335" lon="9.648847">
        <ele>294.248551</ele>
        <time>2026-03-20T12:00:57.763Z</time>
      </trkpt>
      <trkpt lat="51.303076" lon="9.648513">
        <ele>292.017626</ele>
        <time>2026-03-20T12:01:02.523Z</time>
      </trkpt>
      <trkpt lat="51.302619" lon="9.647810">
        <ele>287.765886</ele>
        <time>2026-03-20T12:01:11.609Z</time>
      </trkpt>
      <trkpt lat="51.302422" lon="9.647540">
        <ele>286.026343</ele>
        <time>2026-03-20T12:01:15.338Z</time>
      </trkpt>
      <trkpt lat="51.301532" lon="9.646798">
        <ele>279.328968</ele>
        <time>2026-03-20T12:01:29.917Z</time>
      </trkpt>
      <trkpt lat="51.301104" lon="9.646271">
        <ele>275.724610</ele>
        <time>2026-03-20T12:01:37.745Z</time>
      </trkpt>
      <trkpt lat="51.300727" lon="9.645695">
        <ele>271.922942</ele>
        <time>2026-03-20T12:01:45.178Z</time>
      </trkpt>
      <trkpt lat="51.300244" lon="9.644852">
        <ele>266.297717</ele>
        <time>2026-03-20T12:01:55.207Z</time>
      </trkpt>
      <trkpt lat="51.300079" lon="9.644645">
        <ele>264.647673</ele>
        <time>2026-03-20T12:01:58.129Z</time>
      </trkpt>
      <trkpt lat="51.299938" lon="9.644505">
        <ele>263.341816</ele>
        <time>2026-03-20T12:02:00.443Z</time>
      </trkpt>
      <trkpt lat="51.299381" lon="9.644084">
        <ele>258.574508</ele>
        <time>2026-03-20T12:02:09.034Z</time>
      </trkpt>
      <trkpt lat="51.298765" lon="9.643594">
        <ele>253.471330</ele>
        <time>2026-03-20T12:02:18.657Z</time>
      </trkpt>
      <trkpt lat="51.298051" lon="9.643130">
        <ele>247.754652</ele>
        <time>2026-03-20T12:02:29.649Z</time>
      </trkpt>
      <trkpt lat="51.297368" lon="9.642610">
        <ele>244.180014</ele>
        <time>2026-03-20T12:02:40.785Z</time>
      </trkpt>
      <trkpt lat="51.297273" lon="9.642537">
        <ele>243.759353</ele>
        <time>2026-03-20T12:02:42.395Z</time>
      </trkpt>
      <trkpt lat="51.297020" lon="9.642431">
        <ele>242.715503</ele>
        <time>2026-03-20T12:02:46.446Z</time>
      </trkpt>
      <trkpt lat="51.296664" lon="9.642398">
        <ele>241.292251</ele>
        <time>2026-03-20T12:02:52.229Z</time>
      </trkpt>
      <trkpt lat="51.296542" lon="9.642341">
        <ele>240.784971</ele>
        <time>2026-03-20T12:02:54.353Z</time>
      </trkpt>
      <trkpt lat="51.296095" lon="9.641855">
        <ele>239.357852</ele>
        <time>2026-03-20T12:03:03.975Z</time>
      </trkpt>
      <trkpt lat="51.295102" lon="9.641071">
        <ele>239.266336</ele>
        <time>2026-03-20T12:03:27.713Z</time>
      </trkpt>
      <trkpt lat="51.294884" lon="9.640944">
        <ele>239.247163</ele>
        <time>2026-03-20T12:03:33.778Z</time>
      </trkpt>
      <trkpt lat="51.294060" lon="9.640702">
        <ele>240.049349</ele>
        <time>2026-03-20T12:03:57.412Z</time>
      </trkpt>
      <trkpt lat="51.293896" lon="9.640616">
        <ele>240.301096</ele>
        <time>2026-03-20T12:04:02.720Z</time>
      </trkpt>
      <trkpt lat="51.293679" lon="9.640369">
        <ele>240.689610</ele>
        <time>2026-03-20T12:04:11.076Z</time>
      </trkpt>
      <trkpt lat="51.293565" lon="9.640126">
        <ele>240.966697</ele>
        <time>2026-03-20T12:04:16.827Z</time>
      </trkpt>
      <trkpt lat="51.293232" lon="9.638938">
        <ele>241.666529</ele>
        <time>2026-03-20T12:04:38.739Z</time>
      </trkpt>
      <trkpt lat="51.293025" lon="9.638274">
        <ele>241.264726</ele>
        <time>2026-03-20T12:04:49.696Z</time>
      </trkpt>
      <trkpt lat="51.292901" lon="9.637987">
        <ele>241.075808</ele>
        <time>2026-03-20T12:04:54.424Z</time>
      </trkpt>
      <trkpt lat="51.292745" lon="9.637767">
        <ele>240.895676</ele>
        <time>2026-03-20T12:04:58.541Z</time>
      </trkpt>
      <trkpt lat="51.292545" lon="9.637684">
        <ele>240.716733</ele>
        <time>2026-03-20T12:05:02.315Z</time>
      </trkpt>
      <trkpt lat="51.292372" lon="9.637674">
        <ele>240.566812</ele>
        <time>2026-03-20T12:05:05.287Z</time>
      </trkpt>
      <trkpt lat="51.292020" lon="9.637797">
        <ele>240.092108</ele>
        <time>2026-03-20T12:05:11.271Z</time>
      </trkpt>
      <trkpt lat="51.291914" lon="9.637830">
        <ele>239.573007</ele>
        <time>2026-03-20T12:05:13.031Z</time>
      </trkpt>
      <trkpt lat="51.291748" lon="9.637796">
        <ele>238.768538</ele>
        <time>2026-03-20T12:05:15.712Z</time>
      </trkpt>
      <trkpt lat="51.291595" lon="9.637702">
        <ele>237.980663</ele>
        <time>2026-03-20T12:05:18.314Z</time>
      </trkpt>
      <trkpt lat="51.291007" lon="9.637082">
        <ele>234.595023</ele>
        <time>2026-03-20T12:05:29.040Z</time>
      </trkpt>
      <trkpt lat="51.290577" lon="9.636711">
        <ele>232.246360</ele>
        <time>2026-03-20T12:05:36.281Z</time>
      </trkpt>
      <trkpt lat="51.290238" lon="9.636599">
        <ele>230.057571</ele>
        <time>2026-03-20T12:05:41.246Z</time>
      </trkpt>
      <trkpt lat="51.290047" lon="9.636630">
        <ele>228.678756</ele>
        <time>2026-03-20T12:05:43.976Z</time>
      </trkpt>
      <trkpt lat="51.289816" lon="9.636757">
        <ele>226.924385</ele>
        <time>2026-03-20T12:05:47.451Z</time>
      </trkpt>
      <trkpt lat="51.289736" lon="9.636819">
        <ele>226.285896</ele>
        <time>2026-03-20T12:05:48.713Z</time>
      </trkpt>
      <trkpt lat="51.289512" lon="9.637144">
        <ele>224.113568</ele>
        <time>2026-03-20T12:05:52.998Z</time>
      </trkpt>
      <trkpt lat="51.289337" lon="9.637285">
        <ele>222.706173</ele>
        <time>2026-03-20T12:05:55.751Z</time>
      </trkpt>
      <trkpt lat="51.289143" lon="9.637319">
        <ele>221.304516</ele>
        <time>2026-03-20T12:05:58.512Z</time>
      </trkpt>
      <trkpt lat="51.288944" lon="9.637295">
        <ele>219.871234</ele>
        <time>2026-03-20T12:06:01.334Z</time>
      </trkpt>
      <trkpt lat="51.288708" lon="9.637325">
        <ele>218.367976</ele>
        <time>2026-03-20T12:06:04.654Z</time>
      </trkpt>
      <trkpt lat="51.288376" lon="9.637510">
        <ele>216.738200</ele>
        <time>2026-03-20T12:06:09.670Z</time>
      </trkpt>
      <trkpt lat="51.288003" lon="9.637600">
        <ele>214.989567</ele>
        <time>2026-03-20T12:06:15.292Z</time>
      </trkpt>
      <trkpt lat="51.287594" lon="9.637603">
        <ele>213.093610</ele>
        <time>2026-03-20T12:06:21.691Z</time>
      </trkpt>
      <trkpt lat="51.287065" lon="9.637624">
        <ele>210.640652</ele>
        <time>2026-03-20T12:06:30.541Z</time>
      </trkpt>
      <trkpt lat="51.286916" lon="9.637637">
        <ele>210.237439</ele>
        <time>2026-03-20T12:06:33.176Z</time>
      </trkpt>
      <trkpt lat="51.286629" lon="9.637859">
        <ele>209.728477</ele>
        <time>2026-03-20T12:06:38.940Z</time>
      </trkpt>
      <trkpt lat="51.286558" lon="9.637867">
        <ele>209.614852</ele>
        <time>2026-03-20T12:06:40.260Z</time>
      </trkpt>
      <trkpt lat="51.286502" lon="9.637835">
        <ele>209.519916</ele>
        <time>2026-03-20T12:06:41.359Z</time>
      </trkpt>
      <trkpt lat="51.286380" lon="9.637646">
        <ele>209.248734</ele>
        <time>2026-03-20T12:06:44.500Z</time>
      </trkpt>
      <trkpt lat="51.286270" lon="9.637540">
        <ele>209.043704</ele>
        <time>2026-03-20T12:06:46.893Z</time>
      </trkpt>
      <trkpt lat="51.286167" lon="9.637495">
        <ele>208.873248</ele>
        <time>2026-03-20T12:06:48.911Z</time>
      </trkpt>
      <trkpt lat="51.285783" lon="9.637322">
        <ele>208.236363</ele>
        <time>2026-03-20T12:06:56.318Z</time>
      </trkpt>
      <trkpt lat="51.285466" lon="9.637164">
        <ele>207.706289</ele>
        <time>2026-03-20T12:07:02.398Z</time>
      </trkpt>
      <trkpt lat="51.285236" lon="9.636992">
        <ele>207.331647</ele>
        <time>2026-03-20T12:07:07.121Z</time>
      </trkpt>
      <trkpt lat="51.285002" lon="9.636755">
        <ele>206.952102</ele>
        <time>2026-03-20T12:07:12.349Z</time>
      </trkpt>
      <trkpt lat="51.284837" lon="9.636512">
        <ele>206.644724</ele>
        <time>2026-03-20T12:07:16.618Z</time>
      </trkpt>
      <trkpt lat="51.284688" lon="9.636171">
        <ele>206.288238</ele>
        <time>2026-03-20T12:07:21.549Z</time>
      </trkpt>
      <trkpt lat="51.285039" lon="9.635702">
        <ele>205.661459</ele>
        <time>2026-03-20T12:07:29.983Z</time>
      </trkpt>
      <trkpt lat="51.285121" lon="9.635590">
        <ele>205.513687</ele>
        <time>2026-03-20T12:07:31.968Z</time>
      </trkpt>
      <trkpt lat="51.285428" lon="9.635171">
        <ele>204.959860</ele>
        <time>2026-03-20T12:07:39.364Z</time>
      </trkpt>
      <trkpt lat="51.285560" lon="9.634991">
        <ele>204.720197</ele>
        <time>2026-03-20T12:07:42.541Z</time>
      </trkpt>
      <trkpt lat="51.285829" lon="9.634603">
        <ele>204.219724</ele>
        <time>2026-03-20T12:07:49.139Z</time>
      </trkpt>
      <trkpt lat="51.285943" lon="9.634447">
        <ele>204.012436</ele>
        <time>2026-03-20T12:07:51.851Z</time>
      </trkpt>
      <trkpt lat="51.286241" lon="9.634039">
        <ele>203.470463</ele>
        <time>2026-03-20T12:07:58.879Z</time>
      </trkpt>
      <trkpt lat="51.286835" lon="9.633211">
        <ele>202.596532</ele>
        <time>2026-03-20T12:08:13.612Z</time>
      </trkpt>
      <trkpt lat="51.286912" lon="9.633102">
        <ele>202.617932</ele>
        <time>2026-03-20T12:08:15.751Z</time>
      </trkpt>
      <trkpt lat="51.287336" lon="9.632483">
        <ele>202.737404</ele>
        <time>2026-03-20T12:08:28.649Z</time>
      </trkpt>
      <trkpt lat="51.287771" lon="9.631884">
        <ele>202.856861</ele>
        <time>2026-03-20T12:08:42.851Z</time>
      </trkpt>
      <trkpt lat="51.288186" lon="9.631305">
        <ele>202.928367</ele>
        <time>2026-03-20T12:08:57.546Z</time>
      </trkpt>
      <trkpt lat="51.288293" lon="9.631156">
        <ele>202.913663</ele>
        <time>2026-03-20T12:09:01.345Z</time>
      </trkpt>
      <trkpt lat="51.288497" lon="9.630910">
        <ele>202.887185</ele>
        <time>2026-03-20T12:09:07.732Z</time>
      </trkpt>
      <trkpt lat="51.288649" lon="9.630811">
        <ele>202.870177</ele>
        <time>2026-03-20T12:09:11.569Z</time>
      </trkpt>
      <trkpt lat="51.288833" lon="9.630697">
        <ele>202.849728</ele>
        <time>2026-03-20T12:09:15.998Z</time>
      </trkpt>
      <trkpt lat="51.288910" lon="9.630303">
        <ele>202.822975</ele>
        <time>2026-03-20T12:09:21.478Z</time>
      </trkpt>
      <trkpt lat="51.289102" lon="9.630104">
        <ele>202.799264</ele>
        <time>2026-03-20T12:09:26.168Z</time>
      </trkpt>
      <trkpt lat="51.289152" lon="9.629946">
        <ele>202.787788</ele>
        <time>2026-03-20T12:09:28.372Z</time>
      </trkpt>
      <trkpt lat="51.289111" lon="9.629620">
        <ele>202.766238</ele>
        <time>2026-03-20T12:09:32.403Z</time>
      </trkpt>
      <trkpt lat="51.289126" lon="9.628436">
        <ele>202.012589</ele>
        <time>2026-03-20T12:09:45.994Z</time>
      </trkpt>
      <trkpt lat="51.289144" lon="9.627204">
        <ele>201.123614</ele>
        <time>2026-03-20T12:10:00.279Z</time>
      </trkpt>
      <trkpt lat="51.289117" lon="9.626782">
        <ele>200.817605</ele>
        <time>2026-03-20T12:10:05.405Z</time>
      </trkpt>
      <trkpt lat="51.289071" lon="9.626374">
        <ele>200.645155</ele>
        <time>2026-03-20T12:10:10.643Z</time>
      </trkpt>
      <trkpt lat="51.288893" lon="9.625370">
        <ele>200.476857</ele>
        <time>2026-03-20T12:10:24.687Z</time>
      </trkpt>
      <trkpt lat="51.288967" lon="9.625030">
        <ele>200.418798</ele>
        <time>2026-03-20T12:10:29.753Z</time>
      </trkpt>
      <trkpt lat="51.289269" lon="9.624398">
        <ele>200.290527</ele>
        <time>2026-03-20T12:10:40.877Z</time>
      </trkpt>
      <trkpt lat="51.289962" lon="9.623291">
        <ele>199.752685</ele>
        <time>2026-03-20T12:11:01.465Z</time>
      </trkpt>
      <trkpt lat="51.290039" lon="9.623131">
        <ele>199.668493</ele>
        <time>2026-03-20T12:11:04.057Z</time>
      </trkpt>
      <trkpt lat="51.290061" lon="9.623085">
        <ele>199.644343</ele>
        <time>2026-03-20T12:11:04.783Z</time>
      </trkpt>
      <trkpt lat="51.290333" lon="9.622583">
        <ele>199.367354</ele>
        <time>2026-03-20T12:11:13.204Z</time>
      </trkpt>
      <trkpt lat="51.290559" lon="9.621915">
        <ele>199.050634</ele>
        <time>2026-03-20T12:11:22.586Z</time>
      </trkpt>
      <trkpt lat="51.290705" lon="9.621301">
        <ele>198.222400</ele>
        <time>2026-03-20T12:11:30.128Z</time>
      </trkpt>
      <trkpt lat="51.290748" lon="9.620759">
        <ele>197.472056</ele>
        <time>2026-03-20T12:11:36.019Z</time>
      </trkpt>
      <trkpt lat="51.290745" lon="9.620185">
        <ele>196.683703</ele>
        <time>2026-03-20T12:11:42.079Z</time>
      </trkpt>
      <trkpt lat="51.290329" lon="9.619738">
        <ele>195.583009</ele>
        <time>2026-03-20T12:11:53.600Z</time>
      </trkpt>
      <trkpt lat="51.290130" lon="9.619557">
        <ele>195.080227</ele>
        <time>2026-03-20T12:11:57.433Z</time>
      </trkpt>
      <trkpt lat="51.289870" lon="9.619364">
        <ele>194.591265</ele>
        <time>2026-03-20T12:12:02.272Z</time>
      </trkpt>
      <trkpt lat="51.289765" lon="9.619024">
        <ele>194.188989</ele>
        <time>2026-03-20T12:12:06.346Z</time>
      </trkpt>
      <trkpt lat="51.289560" lon="9.618363">
        <ele>193.406261</ele>
        <time>2026-03-20T12:12:14.707Z</time>
      </trkpt>
      <trkpt lat="51.289479" lon="9.617716">
        <ele>192.706258</ele>
        <time>2026-03-20T12:12:22.697Z</time>
      </trkpt>
      <trkpt lat="51.289439" lon="9.617583">
        <ele>192.549694</ele>
        <time>2026-03-20T12:12:24.469Z</time>
      </trkpt>
      <trkpt lat="51.289365" lon="9.617507">
        <ele>192.400501</ele>
        <time>2026-03-20T12:12:26.129Z</time>
      </trkpt>
      <trkpt lat="51.288665" lon="9.617445">
        <ele>191.536554</ele>
        <time>2026-03-20T12:12:39.326Z</time>
      </trkpt>
      <trkpt lat="51.288559" lon="9.617408">
        <ele>191.426794</ele>
        <time>2026-03-20T12:12:41.369Z</time>
      </trkpt>
      <trkpt lat="51.288404" lon="9.617276">
        <ele>191.249135</ele>
        <time>2026-03-20T12:12:44.692Z</time>
      </trkpt>
      <trkpt lat="51.288279" lon="9.617140">
        <ele>191.096181</ele>
        <time>2026-03-20T12:12:47.568Z</time>
      </trkpt>
      <trkpt lat="51.288187" lon="9.616966">
        <ele>190.952022</ele>
        <time>2026-03-20T12:12:50.300Z</time>
      </trkpt>
      <trkpt lat="51.288218" lon="9.615644">
        <ele>190.147559</ele>
        <time>2026-03-20T12:13:06.482Z</time>
      </trkpt>
      <trkpt lat="51.288229" lon="9.615431">
        <ele>190.065607</ele>
        <time>2026-03-20T12:13:09.136Z</time>
      </trkpt>
      <trkpt lat="51.288272" lon="9.614519">
        <ele>189.714914</ele>
        <time>2026-03-20T12:13:20.719Z</time>
      </trkpt>
      <trkpt lat="51.288334" lon="9.613186">
        <ele>189.202372</ele>
        <time>2026-03-20T12:13:37.671Z</time>
      </trkpt>
      <trkpt lat="51.288339" lon="9.613095">
        <ele>189.167345</ele>
        <time>2026-03-20T12:13:38.861Z</time>
      </trkpt>
      <trkpt lat="51.288344" lon="9.613002">
        <ele>189.131553</ele>
        <time>2026-03-20T12:13:40.074Z</time>
      </trkpt>
      <trkpt lat="51.288376" lon="9.612421">
        <ele>188.940427</ele>
        <time>2026-03-20T12:13:47.761Z</time>
      </trkpt>
      <trkpt lat="51.288392" lon="9.612134">
        <ele>188.849161</ele>
        <time>2026-03-20T12:13:51.507Z</time>
      </trkpt>
      <trkpt lat="51.288432" lon="9.611413">
        <ele>188.619892</ele>
        <time>2026-03-20T12:14:00.792Z</time>
      </trkpt>
      <trkpt lat="51.288441" lon="9.610988">
        <ele>188.485199</ele>
        <time>2026-03-20T12:14:06.258Z</time>
      </trkpt>
      <trkpt lat="51.288294" lon="9.610410">
        <ele>188.287562</ele>
        <time>2026-03-20T12:14:14.278Z</time>
      </trkpt>
      <trkpt lat="51.288256" lon="9.610288">
        <ele>188.244392</ele>
        <time>2026-03-20T12:14:16.017Z</time>
      </trkpt>
      <trkpt lat="51.287955" lon="9.609167">
        <ele>187.717815</ele>
        <time>2026-03-20T12:14:31.356Z</time>
      </trkpt>
      <trkpt lat="51.287913" lon="9.608749">
        <ele>187.526047</ele>
        <time>2026-03-20T12:14:36.569Z</time>
      </trkpt>
      <trkpt lat="51.287848" lon="9.608152">
        <ele>187.251559</ele>
        <time>2026-03-20T12:14:44.147Z</time>
      </trkpt>
      <trkpt lat="51.287770" lon="9.607916">
        <ele>187.130649</ele>
        <time>2026-03-20T12:14:47.524Z</time>
      </trkpt>
      <trkpt lat="51.287461" lon="9.607186">
        <ele>186.679966</ele>
        <time>2026-03-20T12:14:58.462Z</time>
      </trkpt>
      <trkpt lat="51.287186" lon="9.606403">
        <ele>186.133633</ele>
        <time>2026-03-20T12:15:09.138Z</time>
      </trkpt>
      <trkpt lat="51.287168" lon="9.606349">
        <ele>186.096405</ele>
        <time>2026-03-20T12:15:09.852Z</time>
      </trkpt>
      <trkpt lat="51.286849" lon="9.605651">
        <ele>185.570458</ele>
        <time>2026-03-20T12:15:20.227Z</time>
      </trkpt>
      <trkpt lat="51.286639" lon="9.605213">
        <ele>185.234693</ele>
        <time>2026-03-20T12:15:26.996Z</time>
      </trkpt>
      <trkpt lat="51.286592" lon="9.605081">
        <ele>185.142283</ele>
        <time>2026-03-20T12:15:28.836Z</time>
      </trkpt>
      <trkpt lat="51.286554" lon="9.604947">
        <ele>185.077114</ele>
        <time>2026-03-20T12:15:30.649Z</time>
      </trkpt>
      <trkpt lat="51.286491" lon="9.604670">
        <ele>184.953214</ele>
        <time>2026-03-20T12:15:34.222Z</time>
      </trkpt>
      <trkpt lat="51.286427" lon="9.604318">
        <ele>184.799121</ele>
        <time>2026-03-20T12:15:38.737Z</time>
      </trkpt>
      <trkpt lat="51.286469" lon="9.603919">
        <ele>184.629038</ele>
        <time>2026-03-20T12:15:43.744Z</time>
      </trkpt>
      <trkpt lat="51.286510" lon="9.603640">
        <ele>184.508563</ele>
        <time>2026-03-20T12:15:47.418Z</time>
      </trkpt>
      <trkpt lat="51.286534" lon="9.603330">
        <ele>184.377257</ele>
        <time>2026-03-20T12:15:51.432Z</time>
      </trkpt>
      <trkpt lat="51.286553" lon="9.602768">
        <ele>184.140670</ele>
        <time>2026-03-20T12:16:01.138Z</time>
      </trkpt>
      <trkpt lat="51.286612" lon="9.602524">
        <ele>184.030703</ele>
        <time>2026-03-20T12:16:05.579Z</time>
      </trkpt>
      <trkpt lat="51.286551" lon="9.602501">
        <ele>183.988579</ele>
        <time>2026-03-20T12:16:06.887Z</time>
      </trkpt>
      <trkpt lat="51.286464" lon="9.602490">
        <ele>183.929923</ele>
        <time>2026-03-20T12:16:08.732Z</time>
      </trkpt>
      <trkpt lat="51.286441" lon="9.602479">
        <ele>183.920598</ele>
        <time>2026-03-20T12:16:09.230Z</time>
      </trkpt>
      <trkpt lat="51.286254" lon="9.602389">
        <ele>183.890370</ele>
        <time>2026-03-20T12:16:13.368Z</time>
      </trkpt>
      <trkpt lat="51.286293" lon="9.602197">
        <ele>183.870827</ele>
        <time>2026-03-20T12:16:16.066Z</time>
      </trkpt>
      <trkpt lat="51.286353" lon="9.601927">
        <ele>183.843089</ele>
        <time>2026-03-20T12:16:19.920Z</time>
      </trkpt>
      <trkpt lat="51.286467" lon="9.601641">
        <ele>183.810257</ele>
        <time>2026-03-20T12:16:24.544Z</time>
      </trkpt>
      <trkpt lat="51.286527" lon="9.601501">
        <ele>183.793827</ele>
        <time>2026-03-20T12:16:26.714Z</time>
      </trkpt>
      <trkpt lat="51.286541" lon="9.601472">
        <ele>183.790281</ele>
        <time>2026-03-20T12:16:27.202Z</time>
      </trkpt>
      <trkpt lat="51.286602" lon="9.601310">
        <ele>183.771975</ele>
        <time>2026-03-20T12:16:29.628Z</time>
      </trkpt>
      <trkpt lat="51.286599" lon="9.601172">
        <ele>183.758608</ele>
        <time>2026-03-20T12:16:31.453Z</time>
      </trkpt>
      <trkpt lat="51.286354" lon="9.600407">
        <ele>183.675406</ele>
        <time>2026-03-20T12:16:43.497Z</time>
      </trkpt>
      <trkpt lat="51.286323" lon="9.600313">
        <ele>183.665118</ele>
        <time>2026-03-20T12:16:45.273Z</time>
      </trkpt>
      <trkpt lat="51.286365" lon="9.600312">
        <ele>183.658617</ele>
        <time>2026-03-20T12:16:46.344Z</time>
      </trkpt>
      <trkpt lat="51.286362" lon="9.600193">
        <ele>183.647087</ele>
        <time>2026-03-20T12:16:48.251Z</time>
      </trkpt>
      <trkpt lat="51.286362" lon="9.600193">
        <ele>183.647087</ele>
        <time>2026-03-20T12:16:48.259Z</time>
      </trkpt>
      <trkpt lat="51.286362" lon="9.600193">
        <ele>183.647087</ele>
        <time>2026-03-20T12:16:48.267Z</time>
      </trkpt>
      <trkpt lat="51.286365" lon="9.600312">
        <ele>183.694197</ele>
        <time>2026-03-20T12:16:50.248Z</time>
      </trkpt>
      <trkpt lat="51.286569" lon="9.600264">
        <ele>183.878038</ele>
        <time>2026-03-20T12:16:55.543Z</time>
      </trkpt>
      <trkpt lat="51.286635" lon="9.600204">
        <ele>183.945729</ele>
        <time>2026-03-20T12:16:57.585Z</time>
      </trkpt>
      <trkpt lat="51.286813" lon="9.600039">
        <ele>184.129171</ele>
        <time>2026-03-20T12:17:02.525Z</time>
      </trkpt>
      <trkpt lat="51.286874" lon="9.599981">
        <ele>184.192447</ele>
        <time>2026-03-20T12:17:04.286Z</time>
      </trkpt>
      <trkpt lat="51.286919" lon="9.599934">
        <ele>184.240369</ele>
        <time>2026-03-20T12:17:05.587Z</time>
      </trkpt>
      <trkpt lat="51.287166" lon="9.599660">
        <ele>184.508399</ele>
        <time>2026-03-20T12:17:12.752Z</time>
      </trkpt>
      <trkpt lat="51.287123" lon="9.598097">
        <ele>185.298080</ele>
        <time>2026-03-20T12:17:40.515Z</time>
      </trkpt>
      <trkpt lat="51.287042" lon="9.596794">
        <ele>185.573925</ele>
        <time>2026-03-20T12:18:00.970Z</time>
      </trkpt>
      <trkpt lat="51.286998" lon="9.596082">
        <ele>185.724647</ele>
        <time>2026-03-20T12:18:12.184Z</time>
      </trkpt>
      <trkpt lat="51.286963" lon="9.595502">
        <ele>185.847398</ele>
        <time>2026-03-20T12:18:19.981Z</time>
      </trkpt>
      <trkpt lat="51.286942" lon="9.595169">
        <ele>185.384715</ele>
        <time>2026-03-20T12:18:23.735Z</time>
      </trkpt>
      <trkpt lat="51.286961" lon="9.594934">
        <ele>185.020050</ele>
        <time>2026-03-20T12:18:26.233Z</time>
      </trkpt>
      <trkpt lat="51.287008" lon="9.594415">
        <ele>184.213003</ele>
        <time>2026-03-20T12:18:31.675Z</time>
      </trkpt>
      <trkpt lat="51.287022" lon="9.594270">
        <ele>183.987211</ele>
        <time>2026-03-20T12:18:33.191Z</time>
      </trkpt>
      <trkpt lat="51.287068" lon="9.593768">
        <ele>183.206409</ele>
        <time>2026-03-20T12:18:38.421Z</time>
      </trkpt>
      <trkpt lat="51.287106" lon="9.593575">
        <ele>182.895020</ele>
        <time>2026-03-20T12:18:40.510Z</time>
      </trkpt>
      <trkpt lat="51.287116" lon="9.593521">
        <ele>182.808350</ele>
        <time>2026-03-20T12:18:41.092Z</time>
      </trkpt>
      <trkpt lat="51.287125" lon="9.593478">
        <ele>182.738568</ele>
        <time>2026-03-20T12:18:41.555Z</time>
      </trkpt>
      <trkpt lat="51.287154" lon="9.593347">
        <ele>182.524709</ele>
        <time>2026-03-20T12:18:43.000Z</time>
      </trkpt>
      <trkpt lat="51.287179" lon="9.593233">
        <ele>182.338796</ele>
        <time>2026-03-20T12:18:44.261Z</time>
      </trkpt>
      <trkpt lat="51.287365" lon="9.592531">
        <ele>181.224251</ele>
        <time>2026-03-20T12:18:52.080Z</time>
      </trkpt>
      <trkpt lat="51.287500" lon="9.591835">
        <ele>180.353952</ele>
        <time>2026-03-20T12:18:59.711Z</time>
      </trkpt>
      <trkpt lat="51.287630" lon="9.591015">
        <ele>179.343646</ele>
        <time>2026-03-20T12:19:09.207Z</time>
      </trkpt>
      <trkpt lat="51.287746" lon="9.590328">
        <ele>178.493783</ele>
        <time>2026-03-20T12:19:17.430Z</time>
      </trkpt>
      <trkpt lat="51.287967" lon="9.589594">
        <ele>177.847327</ele>
        <time>2026-03-20T12:19:27.042Z</time>
      </trkpt>
      <trkpt lat="51.288209" lon="9.588774">
        <ele>177.513074</ele>
        <time>2026-03-20T12:19:38.359Z</time>
      </trkpt>
      <trkpt lat="51.288343" lon="9.588323">
        <ele>177.329009</ele>
        <time>2026-03-20T12:19:44.748Z</time>
      </trkpt>
      <trkpt lat="51.288379" lon="9.588214">
        <ele>177.283568</ele>
        <time>2026-03-20T12:19:46.357Z</time>
      </trkpt>
      <trkpt lat="51.288491" lon="9.587869">
        <ele>177.140274</ele>
        <time>2026-03-20T12:19:51.501Z</time>
      </trkpt>
      <trkpt lat="51.289012" lon="9.586258">
        <ele>176.805825</ele>
        <time>2026-03-20T12:20:16.660Z</time>
      </trkpt>
      <trkpt lat="51.289111" lon="9.586008">
        <ele>176.775772</ele>
        <time>2026-03-20T12:20:20.630Z</time>
      </trkpt>
      <trkpt lat="51.289251" lon="9.585768">
        <ele>176.742440</ele>
        <time>2026-03-20T12:20:25.046Z</time>
      </trkpt>
      <trkpt lat="51.291093" lon="9.582648">
        <ele>175.976848</ele>
        <time>2026-03-20T12:21:22.044Z</time>
      </trkpt>
      <trkpt lat="51.291171" lon="9.582515">
        <ele>175.912794</ele>
        <time>2026-03-20T12:21:24.412Z</time>
      </trkpt>
      <trkpt lat="51.291737" lon="9.581795">
        <ele>175.506513</ele>
        <time>2026-03-20T12:21:39.071Z</time>
      </trkpt>
      <trkpt lat="51.292238" lon="9.581178">
        <ele>175.151289</ele>
        <time>2026-03-20T12:21:52.359Z</time>
      </trkpt>
      <trkpt lat="51.292737" lon="9.580532">
        <ele>174.560502</ele>
        <time>2026-03-20T12:22:05.658Z</time>
      </trkpt>
      <trkpt lat="51.292910" lon="9.580361">
        <ele>174.364390</ele>
        <time>2026-03-20T12:22:09.823Z</time>
      </trkpt>
      <trkpt lat="51.293024" lon="9.580195">
        <ele>174.215719</ele>
        <time>2026-03-20T12:22:12.959Z</time>
      </trkpt>
      <trkpt lat="51.293206" lon="9.578773">
        <ele>173.330797</ele>
        <time>2026-03-20T12:22:31.112Z</time>
      </trkpt>
      <trkpt lat="51.293339" lon="9.577909">
        <ele>172.653429</ele>
        <time>2026-03-20T12:22:41.838Z</time>
      </trkpt>
      <trkpt lat="51.293542" lon="9.577082">
        <ele>171.977101</ele>
        <time>2026-03-20T12:22:52.770Z</time>
      </trkpt>
      <trkpt lat="51.293686" lon="9.576634">
        <ele>171.593641</ele>
        <time>2026-03-20T12:22:59.113Z</time>
      </trkpt>
      <trkpt lat="51.294436" lon="9.574848">
        <ele>169.670487</ele>
        <time>2026-03-20T12:23:25.788Z</time>
      </trkpt>
      <trkpt lat="51.294385" lon="9.574748">
        <ele>169.549494</ele>
        <time>2026-03-20T12:23:28.351Z</time>
      </trkpt>
      <trkpt lat="51.293543" lon="9.573736">
        <ele>168.080403</ele>
        <time>2026-03-20T12:24:01.611Z</time>
      </trkpt>
      <trkpt lat="51.293502" lon="9.573639">
        <ele>167.993870</ele>
        <time>2026-03-20T12:24:03.917Z</time>
      </trkpt>
      <trkpt lat="51.293504" lon="9.573528">
        <ele>167.911796</ele>
        <time>2026-03-20T12:24:06.108Z</time>
      </trkpt>
      <trkpt lat="51.295794" lon="9.567196">
        <ele>162.980739</ele>
        <time>2026-03-20T12:26:40.111Z</time>
      </trkpt>
      <trkpt lat="51.293966" lon="9.565385">
        <ele>162.375033</ele>
        <time>2026-03-20T12:27:26.027Z</time>
      </trkpt>
      <trkpt lat="51.293824" lon="9.565288">
        <ele>162.413598</ele>
        <time>2026-03-20T12:27:29.851Z</time>
      </trkpt>
      <trkpt lat="51.293704" lon="9.565259">
        <ele>162.443908</ele>
        <time>2026-03-20T12:27:32.764Z</time>
      </trkpt>
      <trkpt lat="51.293107" lon="9.565245">
        <ele>162.593026</ele>
        <time>2026-03-20T12:27:46.812Z</time>
      </trkpt>
      <trkpt lat="51.293002" lon="9.565320">
        <ele>162.621747</ele>
        <time>2026-03-20T12:27:49.454Z</time>
      </trkpt>
      <trkpt lat="51.292831" lon="9.565624">
        <ele>162.685608</ele>
        <time>2026-03-20T12:27:55.427Z</time>
      </trkpt>
      <trkpt lat="51.292821" lon="9.565226">
        <ele>162.747818</ele>
        <time>2026-03-20T12:28:01.224Z</time>
      </trkpt>
      <trkpt lat="51.292807" lon="9.565190">
        <ele>162.754439</ele>
        <time>2026-03-20T12:28:01.854Z</time>
      </trkpt>
      <trkpt lat="51.292791" lon="9.565148">
        <ele>162.762120</ele>
        <time>2026-03-20T12:28:02.593Z</time>
      </trkpt>
      <trkpt lat="51.292784" lon="9.565103">
        <ele>162.769362</ele>
        <time>2026-03-20T12:28:03.257Z</time>
      </trkpt>
      <trkpt lat="51.292783" lon="9.565054">
        <ele>162.777019</ele>
        <time>2026-03-20T12:28:03.957Z</time>
      </trkpt>
      <trkpt lat="51.292784" lon="9.565013">
        <ele>162.783427</ele>
        <time>2026-03-20T12:28:04.573Z</time>
      </trkpt>
      <trkpt lat="51.292789" lon="9.564946">
        <ele>162.793965</ele>
        <time>2026-03-20T12:28:06.213Z</time>
      </trkpt>
      <trkpt lat="51.292795" lon="9.564868">
        <ele>162.806239</ele>
        <time>2026-03-20T12:28:08.098Z</time>
      </trkpt>
      <trkpt lat="51.292807" lon="9.564761">
        <ele>162.826925</ele>
        <time>2026-03-20T12:28:10.696Z</time>
      </trkpt>
      <trkpt lat="51.292989" lon="9.564442">
        <ele>162.958487</ele>
        <time>2026-03-20T12:28:21.066Z</time>
      </trkpt>
      <trkpt lat="51.293060" lon="9.564000">
        <ele>163.097524</ele>
        <time>2026-03-20T12:28:31.950Z</time>
      </trkpt>
      <trkpt lat="51.293586" lon="9.562545">
        <ele>163.609563</ele>
        <time>2026-03-20T12:29:13.748Z</time>
      </trkpt>
      <trkpt lat="51.294252" lon="9.561273">
        <ele>163.049386</ele>
        <time>2026-03-20T12:29:53.515Z</time>
      </trkpt>
      <trkpt lat="51.294665" lon="9.560192">
        <ele>162.454648</ele>
        <time>2026-03-20T12:30:19.184Z</time>
      </trkpt>
      <trkpt lat="51.294931" lon="9.559389">
        <ele>161.630914</ele>
        <time>2026-03-20T12:30:36.764Z</time>
      </trkpt>
      <trkpt lat="51.295000" lon="9.558844">
        <ele>161.043040</ele>
        <time>2026-03-20T12:30:47.545Z</time>
      </trkpt>
      <trkpt lat="51.295035" lon="9.558039">
        <ele>160.189927</ele>
        <time>2026-03-20T12:31:03.409Z</time>
      </trkpt>
      <trkpt lat="51.295116" lon="9.557681">
        <ele>159.787430</ele>
        <time>2026-03-20T12:31:11.255Z</time>
      </trkpt>
      <trkpt lat="51.295251" lon="9.557326">
        <ele>159.348165</ele>
        <time>2026-03-20T12:31:20.164Z</time>
      </trkpt>
      <trkpt lat="51.295507" lon="9.556850">
        <ele>159.097765</ele>
        <time>2026-03-20T12:31:33.984Z</time>
      </trkpt>
      <trkpt lat="51.295623" lon="9.556695">
        <ele>159.012626</ele>
        <time>2026-03-20T12:31:39.362Z</time>
      </trkpt>
      <trkpt lat="51.295758" lon="9.556513">
        <ele>158.913177</ele>
        <time>2026-03-20T12:31:45.727Z</time>
      </trkpt>
      <trkpt lat="51.295842" lon="9.556359">
        <ele>158.841205</ele>
        <time>2026-03-20T12:31:50.329Z</time>
      </trkpt>
      <trkpt lat="51.295971" lon="9.556022">
        <ele>158.702045</ele>
        <time>2026-03-20T12:31:59.278Z</time>
      </trkpt>
      <trkpt lat="51.296471" lon="9.554098">
        <ele>157.692677</ele>
        <time>2026-03-20T12:32:45.007Z</time>
      </trkpt>
      <trkpt lat="51.296662" lon="9.553586">
        <ele>157.303544</ele>
        <time>2026-03-20T12:32:57.350Z</time>
      </trkpt>
      <trkpt lat="51.297157" lon="9.551856">
        <ele>156.064731</ele>
        <time>2026-03-20T12:33:36.248Z</time>
      </trkpt>
      <trkpt lat="51.297387" lon="9.551032">
        <ele>155.480690</ele>
        <time>2026-03-20T12:33:47.118Z</time>
      </trkpt>
      <trkpt lat="51.297624" lon="9.550043">
        <ele>154.795186</ele>
        <time>2026-03-20T12:34:00.251Z</time>
      </trkpt>
      <trkpt lat="51.297826" lon="9.548990">
        <ele>153.984408</ele>
        <time>2026-03-20T12:34:13.688Z</time>
      </trkpt>
      <trkpt lat="51.297969" lon="9.548466">
        <ele>153.537234</ele>
        <time>2026-03-20T12:34:20.485Z</time>
      </trkpt>
      <trkpt lat="51.298632" lon="9.547090">
        <ele>152.158100</ele>
        <time>2026-03-20T12:34:40.559Z</time>
      </trkpt>
      <trkpt lat="51.299453" lon="9.545280">
        <ele>150.119629</ele>
        <time>2026-03-20T12:35:06.058Z</time>
      </trkpt>
      <trkpt lat="51.299823" lon="9.544403">
        <ele>149.373586</ele>
        <time>2026-03-20T12:35:18.414Z</time>
      </trkpt>
      <trkpt lat="51.299951" lon="9.544026">
        <ele>149.145355</ele>
        <time>2026-03-20T12:35:23.546Z</time>
      </trkpt>
      <trkpt lat="51.300079" lon="9.543461">
        <ele>148.825647</ele>
        <time>2026-03-20T12:35:30.854Z</time>
      </trkpt>
      <trkpt lat="51.300242" lon="9.542514">
        <ele>148.303095</ele>
        <time>2026-03-20T12:35:43.240Z</time>
      </trkpt>
      <trkpt lat="51.300449" lon="9.541976">
        <ele>148.139233</ele>
        <time>2026-03-20T12:35:51.633Z</time>
      </trkpt>
      <trkpt lat="51.300704" lon="9.541428">
        <ele>148.119233</ele>
        <time>2026-03-20T12:36:00.994Z</time>
      </trkpt>
      <trkpt lat="51.300950" lon="9.540705">
        <ele>148.095135</ele>
        <time>2026-03-20T12:36:13.065Z</time>
      </trkpt>
      <trkpt lat="51.301094" lon="9.540145">
        <ele>148.077407</ele>
        <time>2026-03-20T12:36:22.235Z</time>
      </trkpt>
      <trkpt lat="51.301459" lon="9.538848">
        <ele>147.547549</ele>
        <time>2026-03-20T12:36:40.527Z</time>
      </trkpt>
      <trkpt lat="51.301551" lon="9.538416">
        <ele>147.311350</ele>
        <time>2026-03-20T12:36:46.070Z</time>
      </trkpt>
      <trkpt lat="51.301757" lon="9.538127">
        <ele>147.084522</ele>
        <time>2026-03-20T12:36:51.267Z</time>
      </trkpt>
      <trkpt lat="51.302278" lon="9.537262">
        <ele>146.460275</ele>
        <time>2026-03-20T12:37:05.237Z</time>
      </trkpt>
      <trkpt lat="51.302339" lon="9.537160">
        <ele>146.385535</ele>
        <time>2026-03-20T12:37:06.937Z</time>
      </trkpt>
      <trkpt lat="51.302404" lon="9.537142">
        <ele>146.329665</ele>
        <time>2026-03-20T12:37:08.234Z</time>
      </trkpt>
      <trkpt lat="51.302440" lon="9.537170">
        <ele>146.295762</ele>
        <time>2026-03-20T12:37:09.030Z</time>
      </trkpt>
      <trkpt lat="51.302527" lon="9.537125">
        <ele>146.218322</ele>
        <time>2026-03-20T12:37:11.534Z</time>
      </trkpt>
      <trkpt lat="51.302601" lon="9.537037">
        <ele>146.140225</ele>
        <time>2026-03-20T12:37:14.076Z</time>
      </trkpt>
      <trkpt lat="51.302582" lon="9.536931">
        <ele>146.081836</ele>
        <time>2026-03-20T12:37:16.552Z</time>
      </trkpt>
      <trkpt lat="51.302056" lon="9.535872">
        <ele>145.365664</ele>
        <time>2026-03-20T12:37:46.097Z</time>
      </trkpt>
      <trkpt lat="51.302037" lon="9.535753">
        <ele>145.300630</ele>
        <time>2026-03-20T12:37:48.721Z</time>
      </trkpt>
      <trkpt lat="51.302064" lon="9.535623">
        <ele>145.228094</ele>
        <time>2026-03-20T12:37:51.614Z</time>
      </trkpt>
      <trkpt lat="51.302324" lon="9.535341">
        <ele>144.969874</ele>
        <time>2026-03-20T12:37:59.750Z</time>
      </trkpt>
      <trkpt lat="51.302811" lon="9.535072">
        <ele>144.571191</ele>
        <time>2026-03-20T12:38:12.998Z</time>
      </trkpt>
      <trkpt lat="51.303247" lon="9.535098">
        <ele>144.233577</ele>
        <time>2026-03-20T12:38:24.241Z</time>
      </trkpt>
      <trkpt lat="51.304218" lon="9.534010">
        <ele>143.465609</ele>
        <time>2026-03-20T12:38:49.159Z</time>
      </trkpt>
      <trkpt lat="51.303976" lon="9.533485">
        <ele>143.286797</ele>
        <time>2026-03-20T12:38:57.900Z</time>
      </trkpt>
      <trkpt lat="51.303902" lon="9.533329">
        <ele>143.233115</ele>
        <time>2026-03-20T12:39:00.438Z</time>
      </trkpt>
      <trkpt lat="51.303865" lon="9.533250">
        <ele>143.206055</ele>
        <time>2026-03-20T12:39:01.704Z</time>
      </trkpt>
      <trkpt lat="51.304404" lon="9.532899">
        <ele>142.950874</ele>
        <time>2026-03-20T12:39:13.447Z</time>
      </trkpt>
      <trkpt lat="51.304795" lon="9.532422">
        <ele>142.801687</ele>
        <time>2026-03-20T12:39:23.563Z</time>
      </trkpt>
      <trkpt lat="51.304915" lon="9.532392">
        <ele>142.774243</ele>
        <time>2026-03-20T12:39:26.083Z</time>
      </trkpt>
      <trkpt lat="51.305130" lon="9.532136">
        <ele>142.713682</ele>
        <time>2026-03-20T12:39:31.745Z</time>
      </trkpt>
      <trkpt lat="51.305610" lon="9.531073">
        <ele>142.528452</ele>
        <time>2026-03-20T12:39:49.477Z</time>
      </trkpt>
      <trkpt lat="51.305737" lon="9.530869">
        <ele>142.487784</ele>
        <time>2026-03-20T12:39:53.401Z</time>
      </trkpt>
      <trkpt lat="51.305794" lon="9.530628">
        <ele>142.456458</ele>
        <time>2026-03-20T12:39:57.032Z</time>
      </trkpt>
      <trkpt lat="51.305839" lon="9.530243">
        <ele>142.420451</ele>
        <time>2026-03-20T12:40:02.597Z</time>
      </trkpt>
      <trkpt lat="51.305899" lon="9.529999">
        <ele>142.396347</ele>
        <time>2026-03-20T12:40:06.347Z</time>
      </trkpt>
      <trkpt lat="51.306038" lon="9.529583">
        <ele>142.352984</ele>
        <time>2026-03-20T12:40:13.088Z</time>
      </trkpt>
      <trkpt lat="51.306122" lon="9.529424">
        <ele>142.333847</ele>
        <time>2026-03-20T12:40:16.917Z</time>
      </trkpt>
      <trkpt lat="51.306231" lon="9.529269">
        <ele>142.312401</ele>
        <time>2026-03-20T12:40:21.169Z</time>
      </trkpt>
      <trkpt lat="51.306343" lon="9.529232">
        <ele>142.295583</ele>
        <time>2026-03-20T12:40:24.493Z</time>
      </trkpt>
      <trkpt lat="51.306365" lon="9.529283">
        <ele>142.289887</ele>
        <time>2026-03-20T12:40:25.555Z</time>
      </trkpt>
      <trkpt lat="51.306372" lon="9.529244">
        <ele>142.286157</ele>
        <time>2026-03-20T12:40:26.267Z</time>
      </trkpt>
      <trkpt lat="51.306469" lon="9.529209">
        <ele>142.271535</ele>
        <time>2026-03-20T12:40:29.083Z</time>
      </trkpt>
      <trkpt lat="51.306374" lon="9.528981">
        <ele>142.246346</ele>
        <time>2026-03-20T12:40:33.835Z</time>
      </trkpt>
      <trkpt lat="51.306711" lon="9.528586">
        <ele>142.125635</ele>
        <time>2026-03-20T12:40:45.387Z</time>
      </trkpt>
      <trkpt lat="51.306641" lon="9.528417">
        <ele>142.040076</ele>
        <time>2026-03-20T12:40:48.852Z</time>
      </trkpt>
      <trkpt lat="51.306666" lon="9.528413">
        <ele>142.023115</ele>
        <time>2026-03-20T12:40:49.422Z</time>
      </trkpt>
      <trkpt lat="51.306724" lon="9.528429">
        <ele>141.983382</ele>
        <time>2026-03-20T12:40:50.669Z</time>
      </trkpt>
      <trkpt lat="51.307632" lon="9.527866">
        <ele>141.325959</ele>
        <time>2026-03-20T12:41:10.756Z</time>
      </trkpt>
      <trkpt lat="51.307463" lon="9.526740">
        <ele>140.919056</ele>
        <time>2026-03-20T12:41:25.119Z</time>
      </trkpt>
      <trkpt lat="51.308032" lon="9.526284">
        <ele>140.723855</ele>
        <time>2026-03-20T12:41:38.298Z</time>
      </trkpt>
      <trkpt lat="51.308955" lon="9.525803">
        <ele>140.451421</ele>
        <time>2026-03-20T12:41:58.782Z</time>
      </trkpt>
      <trkpt lat="51.310078" lon="9.525270">
        <ele>141.061778</ele>
        <time>2026-03-20T12:42:28.579Z</time>
      </trkpt>
      <trkpt lat="51.310151" lon="9.525238">
        <ele>141.101217</ele>
        <time>2026-03-20T12:42:30.610Z</time>
      </trkpt>
      <trkpt lat="51.310129" lon="9.525085">
        <ele>141.152353</ele>
        <time>2026-03-20T12:42:33.348Z</time>
      </trkpt>
      <trkpt lat="51.310094" lon="9.524839">
        <ele>141.234528</ele>
        <time>2026-03-20T12:42:37.522Z</time>
      </trkpt>
      <trkpt lat="51.310066" lon="9.524641">
        <ele>141.300649</ele>
        <time>2026-03-20T12:42:40.679Z</time>
      </trkpt>
      <trkpt lat="51.310006" lon="9.524211">
        <ele>141.257818</ele>
        <time>2026-03-20T12:42:47.007Z</time>
      </trkpt>
      <trkpt lat="51.309963" lon="9.523901">
        <ele>141.091596</ele>
        <time>2026-03-20T12:42:51.188Z</time>
      </trkpt>
      <trkpt lat="51.309869" lon="9.523234">
        <ele>140.733680</ele>
        <time>2026-03-20T12:42:59.826Z</time>
      </trkpt>
      <trkpt lat="51.309814" lon="9.522842">
        <ele>140.523375</ele>
        <time>2026-03-20T12:43:04.517Z</time>
      </trkpt>
      <trkpt lat="51.309779" lon="9.522596">
        <ele>140.391309</ele>
        <time>2026-03-20T12:43:07.389Z</time>
      </trkpt>
      <trkpt lat="51.309717" lon="9.522154">
        <ele>140.154182</ele>
        <time>2026-03-20T12:43:12.476Z</time>
      </trkpt>
      <trkpt lat="51.309692" lon="9.521971">
        <ele>140.056126</ele>
        <time>2026-03-20T12:43:14.606Z</time>
      </trkpt>
      <trkpt lat="51.309627" lon="9.521508">
        <ele>139.843960</ele>
        <time>2026-03-20T12:43:20.053Z</time>
      </trkpt>
      <trkpt lat="51.309536" lon="9.520832">
        <ele>139.705185</ele>
        <time>2026-03-20T12:43:28.480Z</time>
      </trkpt>
      <trkpt lat="51.309457" lon="9.520251">
        <ele>139.585859</ele>
        <time>2026-03-20T12:43:36.906Z</time>
      </trkpt>
      <trkpt lat="51.309367" lon="9.519603">
        <ele>139.452642</ele>
        <time>2026-03-20T12:43:46.335Z</time>
      </trkpt>
      <trkpt lat="51.309283" lon="9.519304">
        <ele>139.386855</ele>
        <time>2026-03-20T12:43:50.869Z</time>
      </trkpt>
      <trkpt lat="51.309216" lon="9.519151">
        <ele>139.349365</ele>
        <time>2026-03-20T12:43:53.530Z</time>
      </trkpt>
      <trkpt lat="51.309180" lon="9.518887">
        <ele>139.295137</ele>
        <time>2026-03-20T12:43:58.567Z</time>
      </trkpt>
      <trkpt lat="51.309055" lon="9.518529">
        <ele>139.255596</ele>
        <time>2026-03-20T12:44:06.123Z</time>
      </trkpt>
      <trkpt lat="51.309108" lon="9.518373">
        <ele>139.239953</ele>
        <time>2026-03-20T12:44:08.570Z</time>
      </trkpt>
      <trkpt lat="51.309333" lon="9.517756">
        <ele>139.177022</ele>
        <time>2026-03-20T12:44:21.570Z</time>
      </trkpt>
      <trkpt lat="51.309523" lon="9.517213">
        <ele>139.122199</ele>
        <time>2026-03-20T12:44:32.559Z</time>
      </trkpt>
      <trkpt lat="51.309906" lon="9.516107">
        <ele>138.957724</ele>
        <time>2026-03-20T12:44:54.938Z</time>
      </trkpt>
      <trkpt lat="51.310113" lon="9.515541">
        <ele>138.776044</ele>
        <time>2026-03-20T12:45:06.621Z</time>
      </trkpt>
      <trkpt lat="51.310426" lon="9.514639">
        <ele>138.490219</ele>
        <time>2026-03-20T12:45:24.155Z</time>
      </trkpt>
      <trkpt lat="51.310645" lon="9.514005">
        <ele>138.289533</ele>
        <time>2026-03-20T12:45:36.484Z</time>
      </trkpt>
      <trkpt lat="51.310726" lon="9.513852">
        <ele>138.238747</ele>
        <time>2026-03-20T12:45:39.958Z</time>
      </trkpt>
      <trkpt lat="51.310847" lon="9.513734">
        <ele>138.244037</ele>
        <time>2026-03-20T12:45:43.873Z</time>
      </trkpt>
      <trkpt lat="51.310840" lon="9.513714">
        <ele>138.244572</ele>
        <time>2026-03-20T12:45:44.166Z</time>
      </trkpt>
      <trkpt lat="51.310822" lon="9.513653">
        <ele>138.246146</ele>
        <time>2026-03-20T12:45:45.036Z</time>
      </trkpt>
      <trkpt lat="51.310809" lon="9.513613">
        <ele>138.247198</ele>
        <time>2026-03-20T12:45:45.606Z</time>
      </trkpt>
      <trkpt lat="51.310794" lon="9.513564">
        <ele>138.248471</ele>
        <time>2026-03-20T12:45:46.520Z</time>
      </trkpt>
      <trkpt lat="51.310806" lon="9.513518">
        <ele>138.249634</ele>
        <time>2026-03-20T12:45:47.365Z</time>
      </trkpt>
      <trkpt lat="51.310821" lon="9.513459">
        <ele>138.251120</ele>
        <time>2026-03-20T12:45:48.467Z</time>
      </trkpt>
      <trkpt lat="51.310837" lon="9.513394">
        <ele>138.252750</ele>
        <time>2026-03-20T12:45:49.654Z</time>
      </trkpt>
      <trkpt lat="51.310852" lon="9.513336">
        <ele>138.254215</ele>
        <time>2026-03-20T12:45:50.728Z</time>
      </trkpt>
      <trkpt lat="51.310941" lon="9.513007">
        <ele>138.262580</ele>
        <time>2026-03-20T12:45:56.910Z</time>
      </trkpt>
      <trkpt lat="51.310926" lon="9.512854">
        <ele>138.266193</ele>
        <time>2026-03-20T12:45:59.629Z</time>
      </trkpt>
      <trkpt lat="51.311141" lon="9.512129">
        <ele>138.284918</ele>
        <time>2026-03-20T12:46:14.568Z</time>
      </trkpt>
      <trkpt lat="51.311162" lon="9.512059">
        <ele>138.286729</ele>
        <time>2026-03-20T12:46:15.802Z</time>
      </trkpt>
      <trkpt lat="51.311184" lon="9.511997">
        <ele>138.288393</ele>
        <time>2026-03-20T12:46:16.882Z</time>
      </trkpt>
      <trkpt lat="51.311203" lon="9.511948">
        <ele>138.289738</ele>
        <time>2026-03-20T12:46:17.742Z</time>
      </trkpt>
      <trkpt lat="51.311242" lon="9.511919">
        <ele>138.291344</ele>
        <time>2026-03-20T12:46:18.818Z</time>
      </trkpt>
      <trkpt lat="51.311340" lon="9.511924">
        <ele>138.295004</ele>
        <time>2026-03-20T12:46:21.235Z</time>
      </trkpt>
      <trkpt lat="51.311373" lon="9.511926">
        <ele>138.296236</ele>
        <time>2026-03-20T12:46:22.066Z</time>
      </trkpt>
      <trkpt lat="51.311412" lon="9.511926">
        <ele>138.297692</ele>
        <time>2026-03-20T12:46:23.055Z</time>
      </trkpt>
      <trkpt lat="51.311426" lon="9.511926">
        <ele>138.298215</ele>
        <time>2026-03-20T12:46:24.036Z</time>
      </trkpt>
      <trkpt lat="51.311438" lon="9.511791">
        <ele>138.301397</ele>
        <time>2026-03-20T12:46:26.094Z</time>
      </trkpt>
      <trkpt lat="51.311548" lon="9.511498">
        <ele>138.369933</ele>
        <time>2026-03-20T12:46:32.961Z</time>
      </trkpt>
      <trkpt lat="51.312146" lon="9.510818">
        <ele>138.827699</ele>
        <time>2026-03-20T12:46:56.366Z</time>
      </trkpt>
      <trkpt lat="51.312827" lon="9.510118">
        <ele>139.332746</ele>
        <time>2026-03-20T12:47:22.022Z</time>
      </trkpt>
      <trkpt lat="51.313012" lon="9.509960">
        <ele>139.493597</ele>
        <time>2026-03-20T12:47:28.706Z</time>
      </trkpt>
      <trkpt lat="51.313072" lon="9.509903">
        <ele>139.573592</ele>
        <time>2026-03-20T12:47:30.900Z</time>
      </trkpt>
      <trkpt lat="51.313116" lon="9.509859">
        <ele>139.633076</ele>
        <time>2026-03-20T12:47:32.511Z</time>
      </trkpt>
      <trkpt lat="51.313143" lon="9.509833">
        <ele>139.669202</ele>
        <time>2026-03-20T12:47:33.482Z</time>
      </trkpt>
      <trkpt lat="51.313196" lon="9.509779">
        <ele>139.741235</ele>
        <time>2026-03-20T12:47:35.428Z</time>
      </trkpt>
      <trkpt lat="51.313219" lon="9.509757">
        <ele>139.771954</ele>
        <time>2026-03-20T12:47:36.245Z</time>
      </trkpt>
      <trkpt lat="51.313193" lon="9.509695">
        <ele>139.825453</ele>
        <time>2026-03-20T12:47:37.362Z</time>
      </trkpt>
      <trkpt lat="51.313153" lon="9.509610">
        <ele>139.901692</ele>
        <time>2026-03-20T12:47:39.017Z</time>
      </trkpt>
      <trkpt lat="51.313147" lon="9.509594">
        <ele>139.915061</ele>
        <time>2026-03-20T12:47:39.312Z</time>
      </trkpt>
      <trkpt lat="51.313101" lon="9.509475">
        <ele>140.015320</ele>
        <time>2026-03-20T12:47:41.526Z</time>
      </trkpt>
      <trkpt lat="51.313067" lon="9.509361">
        <ele>140.105830</ele>
        <time>2026-03-20T12:47:43.632Z</time>
      </trkpt>
      <trkpt lat="51.313008" lon="9.509132">
        <ele>140.283314</ele>
        <time>2026-03-20T12:47:47.820Z</time>
      </trkpt>
      <trkpt lat="51.312993" lon="9.508825">
        <ele>140.503968</ele>
        <time>2026-03-20T12:47:53.228Z</time>
      </trkpt>
      <trkpt lat="51.313009" lon="9.508727">
        <ele>140.576546</ele>
        <time>2026-03-20T12:47:55.040Z</time>
      </trkpt>
      <trkpt lat="51.313086" lon="9.508564">
        <ele>140.722949</ele>
        <time>2026-03-20T12:47:58.776Z</time>
      </trkpt>
      <trkpt lat="51.313153" lon="9.508508">
        <ele>140.809606</ele>
        <time>2026-03-20T12:48:00.981Z</time>
      </trkpt>
      <trkpt lat="51.313268" lon="9.508486">
        <ele>140.942378</ele>
        <time>2026-03-20T12:48:04.367Z</time>
      </trkpt>
      <trkpt lat="51.313309" lon="9.508494">
        <ele>140.989727</ele>
        <time>2026-03-20T12:48:05.580Z</time>
      </trkpt>
      <trkpt lat="51.313294" lon="9.508369">
        <ele>141.080932</ele>
        <time>2026-03-20T12:48:07.884Z</time>
      </trkpt>
      <trkpt lat="51.313238" lon="9.507907">
        <ele>141.418147</ele>
        <time>2026-03-20T12:48:16.263Z</time>
      </trkpt>
      <trkpt lat="51.313616" lon="9.507462">
        <ele>141.399867</ele>
        <time>2026-03-20T12:48:28.703Z</time>
      </trkpt>
      <trkpt lat="51.313227" lon="9.506638">
        <ele>141.257420</ele>
        <time>2026-03-20T12:48:43.350Z</time>
      </trkpt>
      <trkpt lat="51.313609" lon="9.506172">
        <ele>141.151402</ele>
        <time>2026-03-20T12:48:51.553Z</time>
      </trkpt>
      <trkpt lat="51.313736" lon="9.505859">
        <ele>141.099926</ele>
        <time>2026-03-20T12:48:57.313Z</time>
      </trkpt>
      <trkpt lat="51.313748" lon="9.505834">
        <ele>141.095577</ele>
        <time>2026-03-20T12:48:57.866Z</time>
      </trkpt>
      <trkpt lat="51.313778" lon="9.505742">
        <ele>141.092720</ele>
        <time>2026-03-20T12:48:59.105Z</time>
      </trkpt>
      <trkpt lat="51.314178" lon="9.504999">
        <ele>141.092720</ele>
        <time>2026-03-20T12:49:22.684Z</time>
      </trkpt>
      <trkpt lat="51.314189" lon="9.504980">
        <ele>141.092720</ele>
        <time>2026-03-20T12:49:23.077Z</time>
      </trkpt>
      <trkpt lat="51.314204" lon="9.504951">
        <ele>141.092720</ele>
        <time>2026-03-20T12:49:23.727Z</time>
      </trkpt>
      <trkpt lat="51.314254" lon="9.504856">
        <ele>141.092720</ele>
        <time>2026-03-20T12:49:25.743Z</time>
      </trkpt>
      <trkpt lat="51.314279" lon="9.504808">
        <ele>141.092720</ele>
        <time>2026-03-20T12:49:26.520Z</time>
      </trkpt>
      <trkpt lat="51.314371" lon="9.504630">
        <ele>141.092720</ele>
        <time>2026-03-20T12:49:30.102Z</time>
      </trkpt>
      <trkpt lat="51.314452" lon="9.504525">
        <ele>141.092720</ele>
        <time>2026-03-20T12:49:32.933Z</time>
      </trkpt>
      <trkpt lat="51.314463" lon="9.504492">
        <ele>141.092720</ele>
        <time>2026-03-20T12:49:33.687Z</time>
      </trkpt>
      <trkpt lat="51.314513" lon="9.504420">
        <ele>141.092720</ele>
        <time>2026-03-20T12:49:35.415Z</time>
      </trkpt>
      <trkpt lat="51.314704" lon="9.504208">
        <ele>141.092720</ele>
        <time>2026-03-20T12:49:42.303Z</time>
      </trkpt>
    </trkseg>
  </trk>
</gpx>